Flight Track Log - Related Links

Times and Time Zones

All times are in EDT time to prevent confusion due to time zone crossing. See the AIC127 flight status page for this flight to view local times or setup timezone preferences in your user account.


Time Position Orientation Groundspeed Altitude Reporting Facility
EDT Latitude Longitude Course Direction KTS MPH feet Rate Location/Type
Wed 06:21:05 PM 28.5530 77.0790 233° Southwest  Level FlightAware ADS-B
Wed 06:22:14 PM 28.5530 77.0770 270° West 187 Level FlightAware ADS-B
Wed 06:22:44 PM 28.5540 77.0770 360° North 207 Level FlightAware ADS-B
Wed 06:23:13 PM 28.5560 77.0780 24° Northeast 216 Level FlightAware ADS-B
Wed 06:23:43 PM 28.5580 77.0780 360° North 227 Level FlightAware ADS-B
Wed 06:24:53 PM 28.5630 77.0800 19° North 238 Level FlightAware ADS-B
Wed 06:25:22 PM 28.5640 77.0800 360° North 271 Level FlightAware ADS-B
Wed 06:26:02 PM 28.5650 77.0810 41° Northeast 288 Level FlightAware ADS-B
Wed 06:27:22 PM 28.5660 77.0840 69° East 314 Level FlightAware ADS-B
Wed 06:30:00 PM 28.8980 77.0030 346° North  Level FlightAware Approximate
Wed 06:31:00 PM 29.0240 76.9719 350° North  Level FlightAware Approximate
Wed 06:31:22 PM 28.5670 77.0840 350° North  Level FlightAware ADS-B
Wed 06:31:38 PM 28.5670 77.0850 90° East 1,150 Level FlightAware ADS-B
Wed 06:32:10 PM 28.5670 77.0860 90° East 1,327 Level FlightAware ADS-B
Wed 06:33:22 PM 28.5550 77.1400 104° East 196 226 2,300 1,765 Climbing FlightAware ADS-B
Wed 06:33:52 PM 28.5470 77.1710 106° East 207 238 3,000 1,138 Climbing FlightAware ADS-B
Wed 06:34:20 PM 28.5400 77.2010 105° East 227 261 3,400 857 Climbing FlightAware ADS-B
Wed 06:34:48 PM 28.5320 77.2360 105° East 250 288 3,800 1,111 Climbing FlightAware ADS-B
Wed 06:35:14 PM 28.5240 77.2710 105° East 266 306 4,400 1,263 Climbing FlightAware ADS-B
Wed 06:35:45 PM 28.5060 77.3060 120° Southeast 280 322 5,000 1,435 Climbing FlightAware ADS-B
Wed 06:36:00 PM 28.4850 77.3130 164° South 288 331 5,500 1,814 Climbing FlightAware ADS-B
Wed 06:36:28 PM 28.4500 77.3000 198° South 299 344 6,300 1,857 Climbing FlightAware ADS-B
Wed 06:36:42 PM 28.4330 77.2910 205° Southwest 299 344 6,800 1,946 Climbing FlightAware ADS-B
Wed 06:37:05 PM 28.4030 77.2840 192° South 301 346 7,500 1,895 Climbing FlightAware ADS-B
Wed 06:37:20 PM 28.3830 77.2730 206° Southwest 306 352 8,000 2,129 Climbing FlightAware ADS-B
Wed 06:37:36 PM 28.3670 77.2530 228° Southwest 309 356 8,600 2,143 Climbing FlightAware ADS-B
Wed 06:37:48 PM 28.3600 77.2350 246° West 313 360 9,000 2,000 Climbing FlightAware ADS-B
Wed 06:38:06 PM 28.3600 77.2060 270° West 318 366 9,600 1,655 Climbing FlightAware ADS-B
Wed 06:38:46 PM 28.3790 77.1430 289° West 334 384 10,600 1,171 Climbing FlightAware ADS-B
Wed 06:39:28 PM 28.4020 77.0690 289° West 365 420 11,200 929 Climbing FlightAware ADS-B
Wed 06:40:10 PM 28.4250 76.9900 288° West 392 451 11,900 1,357 Climbing FlightAware ADS-B
Wed 06:40:52 PM 28.4500 76.9070 289° West 400 460 13,100 1,714 Climbing FlightAware ADS-B
Wed 06:41:34 PM 28.4750 76.8230 289° West 406 467 14,300 1,674 Climbing FlightAware ADS-B
Wed 06:42:18 PM 28.5010 76.7320 288° West 412 474 15,500 1,605 Climbing FlightAware ADS-B
Wed 06:43:00 PM 28.5090 76.6420 276° West 415 478 16,600 1,537 Climbing FlightAware ADS-B
Wed 06:43:40 PM 28.5130 76.5530 273° West 419 482 17,600 1,446 Climbing FlightAware ADS-B
Wed 06:44:23 PM 28.5160 76.4610 272° West 425 489 18,600 1,357 Climbing FlightAware ADS-B
Wed 06:45:04 PM 28.5180 76.3670 271° West 433 498 19,500 1,200 Climbing FlightAware ADS-B
Wed 06:45:48 PM 28.5210 76.2650 272° West 443 510 20,300 1,125 Climbing FlightAware ADS-B
Wed 06:46:24 PM 28.5240 76.1850 272° West 448 516 21,000 1,267 Climbing FlightAware ADS-B
Wed 06:47:18 PM 28.5270 76.0530 272° West 454 522 22,200 1,200 Climbing FlightAware ADS-B
Wed 06:48:04 PM 28.5300 75.9420 272° West 460 529 23,000 955 Climbing FlightAware ADS-B
Wed 06:48:46 PM 28.5330 75.8400 272° West 467 537 23,600 929 Climbing FlightAware ADS-B
Wed 06:49:28 PM 28.5350 75.7370 271° West 474 545 24,300 929 Climbing FlightAware ADS-B
Wed 06:50:10 PM 28.5380 75.6320 272° West 479 551 24,900 847 Climbing FlightAware ADS-B
Wed 06:50:53 PM 28.5410 75.5240 272° West 482 555 25,500 828 Climbing FlightAware ADS-B
Wed 06:51:37 PM 28.5430 75.4130 271° West 488 562 26,100 786 Climbing FlightAware ADS-B
Wed 06:52:17 PM 28.5460 75.3090 272° West 493 567 26,600 714 Climbing FlightAware ADS-B
Wed 06:53:01 PM 28.5480 75.1940 271° West 497 572 27,100 723 Climbing FlightAware ADS-B
Wed 06:53:40 PM 28.5500 75.0910 271° West 501 577 27,600 732 Climbing FlightAware ADS-B
Wed 06:54:23 PM 28.5520 74.9790 271° West 505 581 28,100 349 Climbing FlightAware ADS-B
Wed 06:55:06 PM 28.5540 74.8810 271° West 505 581 28,100 659 Level FlightAware ADS-B
Wed 06:55:45 PM 28.5560 74.7740 271° West 509 586 29,000 835 Climbing FlightAware ADS-B
Wed 06:56:25 PM 28.5580 74.6660 271° West 510 587 29,200 136 Climbing FlightAware ADS-B
Wed 06:57:13 PM 28.5600 74.5570 271° West 510 587 29,200  Level FlightAware ADS-B
Wed 06:57:50 PM 28.5610 74.4720 271° West 510 587 29,200  Level FlightAware ADS-B
Wed 06:58:39 PM 28.5630 74.3600 271° West 510 587 29,200  Level FlightAware ADS-B
Wed 06:59:15 PM 28.5640 74.2780 271° West 510 587 29,200 289 Level FlightAware ADS-B
Wed 07:01:00 PM 28.7832 74.2166 346° North  Level Estimated
Wed 07:01:25 PM 28.5700 73.8460 346° North 515 593 30,000  Level FlightAware ADS-B
Wed 07:01:58 PM 28.5700 73.7660 270° West 515 593 30,000  Level FlightAware ADS-B
Wed 07:02:50 PM 28.5610 73.6140 266° West 513 590 30,000  Level FlightAware ADS-B
Wed 07:03:30 PM 28.5560 73.5080 267° West 513 590 30,000  Level FlightAware ADS-B
Wed 07:04:09 PM 28.5500 73.4030 266° West 514 592 30,000  Level FlightAware ADS-B
Wed 07:04:50 PM 28.5440 73.2960 266° West 512 589 30,000  Level FlightAware ADS-B
Wed 07:05:36 PM 28.5360 73.1690 266° West 512 589 30,000  Level FlightAware ADS-B
Wed 07:06:19 PM 28.5300 73.0640 266° West 513 590 30,000  Level FlightAware ADS-B
Wed 07:07:00 PM 28.5230 72.9450 266° West 511 588 30,000  Level FlightAware ADS-B
Wed 07:07:40 PM 28.5180 72.8540 266° West 511 588 30,000  Level FlightAware ADS-B
Wed 07:08:40 PM 28.5090 72.7170 266° West 511 588 30,000  Level FlightAware ADS-B
Wed 07:09:18 PM 28.5010 72.5760 266° West 505 581 30,000  Level FlightAware ADS-B
Wed 07:10:02 PM 28.4940 72.4590 266° West 505 581 30,000  Level FlightAware ADS-B
Wed 07:10:58 PM 28.4850 72.3110 266° West 506 582 30,000  Level FlightAware ADS-B
Wed 07:11:38 PM 28.4780 72.2210 265° West 506 582 30,000  Level FlightAware ADS-B
Wed 07:12:24 PM 28.4700 72.1170 265° West 506 582 30,000  Level FlightAware ADS-B
Wed 07:13:00 PM 28.4630 72.0360 264° West 506 582 30,000  Level FlightAware ADS-B
Wed 07:14:02 PM 28.4530 71.8970 265° West 506 582 30,000  Level FlightAware ADS-B
Wed 07:14:39 PM 28.4460 71.8130 265° West 506 582 30,000  Level FlightAware ADS-B
Wed 07:15:19 PM 28.4390 71.7230 265° West 506 582 30,000  Level FlightAware ADS-B
Wed 07:16:08 PM 28.4310 71.6120 265° West 506 582 30,000  Level FlightAware ADS-B
Wed 07:17:04 PM 28.4210 71.4860 265° West 506 582 30,000  Level FlightAware ADS-B
Wed 07:17:43 PM 28.4140 71.3980 265° West 506 582 30,000  Level FlightAware ADS-B
Wed 07:18:19 PM 28.4080 71.3170 265° West 506 582 30,000  Level FlightAware ADS-B
Wed 07:19:08 PM 28.3990 71.2070 265° West 506 582 30,000  Level FlightAware ADS-B
Wed 07:19:44 PM 28.3930 71.1260 265° West 506 582 30,000  Level FlightAware ADS-B
Wed 07:20:48 PM 28.3820 70.9810 265° West 506 582 30,000 Level FlightAware ADS-B
Wed 07:23:00 PM 28.6544 70.8905 344° North  Level Estimated
Wed 07:24:00 PM 28.7781 70.8492 344° North  Level Estimated
Wed 07:25:00 PM 28.9019 70.8078 344° North  Level Estimated
Wed 07:26:00 PM 29.0256 70.7663 344° North  Level Estimated
Wed 07:27:00 PM 29.1494 70.7247 344° North  Level Estimated
Wed 07:28:00 PM 29.2731 70.6830 344° North  Level Estimated
Wed 07:29:00 PM 29.3968 70.6412 344° North  Level Estimated
Wed 07:30:00 PM 29.5205 70.5993 344° North  Level Estimated
Wed 07:31:00 PM 29.6442 70.5573 344° North  Level Estimated
Wed 07:32:00 PM 29.7679 70.5152 344° North  Level Estimated
Wed 07:33:00 PM 29.8915 70.4730 344° North  Level Estimated
Wed 07:34:00 PM 30.0152 70.4306 343° North  Level Estimated
Wed 07:35:00 PM 30.1388 70.3882 343° North  Level Estimated
Wed 07:36:00 PM 30.2624 70.3457 343° North  Level Estimated
Wed 07:37:00 PM 30.3860 70.3030 343° North  Level Estimated
Wed 07:38:00 PM 30.5096 70.2603 343° North  Level Estimated
Wed 07:39:00 PM 30.6332 70.2175 343° North  Level Estimated
Wed 07:40:00 PM 30.7568 70.1745 343° North  Level Estimated
Wed 07:41:00 PM 30.8803 70.1314 343° North  Level Estimated
Wed 07:42:00 PM 31.0038 70.0882 343° North  Level Estimated
Wed 07:43:00 PM 31.1274 70.0450 343° North  Level Estimated
Wed 07:44:00 PM 31.2509 70.0015 343° North  Level Estimated
Wed 07:45:00 PM 31.3743 69.9580 343° North  Level Estimated
Wed 07:46:00 PM 31.4978 69.9144 343° North  Level Estimated
Wed 07:47:00 PM 31.6213 69.8706 343° North  Level Estimated
Wed 07:48:00 PM 31.7447 69.8268 343° North  Level Estimated
Wed 07:49:00 PM 31.8682 69.7828 343° North  Level Estimated
Wed 07:50:00 PM 31.9916 69.7387 343° North  Level Estimated
Wed 07:51:00 PM 32.1150 69.6945 343° North  Level Estimated
Wed 07:52:00 PM 32.2384 69.6501 343° North  Level Estimated
Wed 07:53:00 PM 32.3617 69.6057 343° North  Level Estimated
Wed 07:54:00 PM 32.4851 69.5611 343° North  Level Estimated
Wed 07:55:00 PM 32.6084 69.5164 343° North  Level Estimated
Wed 07:56:00 PM 32.7318 69.4715 343° North  Level Estimated
Wed 07:57:00 PM 32.8551 69.4266 343° North  Level Estimated
Wed 07:58:00 PM 32.9784 69.3815 343° North  Level Estimated
Wed 07:59:00 PM 33.1016 69.3363 343° North  Level Estimated
Wed 08:00:00 PM 33.2249 69.2910 343° North  Level Estimated
Wed 08:01:00 PM 33.3481 69.2455 343° North  Level Estimated
Wed 08:02:00 PM 33.4713 69.1999 343° North  Level Estimated
Wed 08:03:00 PM 33.5946 69.1542 343° North  Level Estimated
Wed 08:04:00 PM 33.7177 69.1084 343° North  Level Estimated
Wed 08:05:00 PM 33.8409 69.0624 343° North  Level Estimated
Wed 08:06:00 PM 33.9641 69.0163 343° North  Level Estimated
Wed 08:07:00 PM 34.0872 68.9700 343° North  Level Estimated
Wed 08:08:00 PM 34.2103 68.9236 343° North  Level Estimated
Wed 08:09:00 PM 34.3334 68.8771 343° North  Level Estimated
Wed 08:10:00 PM 34.4565 68.8305 343° North  Level Estimated
Wed 08:11:00 PM 34.5796 68.7837 343° North  Level Estimated
Wed 08:12:00 PM 34.7026 68.7367 343° North  Level Estimated
Wed 08:13:00 PM 34.8257 68.6897 343° North  Level Estimated
Wed 08:14:00 PM 34.9487 68.6425 343° North  Level Estimated
Wed 08:15:00 PM 35.0717 68.5951 343° North  Level Estimated
Wed 08:16:00 PM 35.1947 68.5476 342° North  Level Estimated
Wed 08:17:00 PM 35.3176 68.5000 342° North  Level Estimated
Wed 08:18:00 PM 35.4406 68.4522 342° North  Level Estimated
Wed 08:19:00 PM 35.5635 68.4043 342° North  Level Estimated
Wed 08:20:00 PM 35.6864 68.3562 342° North  Level Estimated
Wed 08:21:00 PM 35.8093 68.3079 342° North  Level Estimated
Wed 08:22:00 PM 35.9321 68.2596 342° North  Level Estimated
Wed 08:23:00 PM 36.0550 68.2110 342° North  Level Estimated
Wed 08:24:00 PM 36.1778 68.1624 342° North  Level Estimated
Wed 08:25:00 PM 36.3006 68.1135 342° North  Level Estimated
Wed 08:26:00 PM 36.4234 68.0645 342° North  Level Estimated
Wed 08:27:00 PM 36.5462 68.0154 342° North  Level Estimated
Wed 08:28:00 PM 36.6689 67.9661 342° North  Level Estimated
Wed 08:29:00 PM 36.7916 67.9166 342° North  Level Estimated
Wed 08:30:00 PM 36.9143 67.8670 342° North  Level Estimated
Wed 08:31:00 PM 37.0370 67.8173 342° North  Level Estimated
Wed 08:32:00 PM 37.1597 67.7673 342° North  Level Estimated
Wed 08:33:00 PM 37.2823 67.7172 342° North  Level Estimated
Wed 08:34:00 PM 37.4049 67.6670 342° North  Level Estimated
Wed 08:35:00 PM 37.5275 67.6165 342° North  Level Estimated
Wed 08:36:00 PM 37.6501 67.5659 342° North  Level Estimated
Wed 08:37:00 PM 37.7727 67.5152 342° North  Level Estimated
Wed 08:38:00 PM 37.8952 67.4643 342° North  Level Estimated
Wed 08:39:00 PM 38.0177 67.4132 342° North  Level Estimated
Wed 08:40:00 PM 38.1402 67.3619 342° North  Level Estimated
Wed 08:41:00 PM 38.2627 67.3104 342° North  Level Estimated
Wed 08:42:00 PM 38.3851 67.2588 342° North  Level Estimated
Wed 08:43:00 PM 38.5075 67.2070 342° North  Level Estimated
Wed 08:44:00 PM 38.6299 67.1551 342° North  Level Estimated
Wed 08:45:00 PM 38.7523 67.1029 342° North  Level Estimated
Wed 08:46:00 PM 38.8747 67.0506 342° North  Level Estimated
Wed 08:47:00 PM 38.9970 66.9981 342° North  Level Estimated
Wed 08:48:00 PM 39.1193 66.9454 342° North  Level Estimated
Wed 08:49:00 PM 39.2416 66.8926 341° North  Level Estimated
Wed 08:50:00 PM 39.3638 66.8395 341° North  Level Estimated
Wed 08:51:00 PM 39.4861 66.7863 341° North  Level Estimated
Wed 08:52:00 PM 39.6083 66.7328 341° North  Level Estimated
Wed 08:53:00 PM 39.7305 66.6792 341° North  Level Estimated
Wed 08:54:00 PM 39.8526 66.6254 341° North  Level Estimated
Wed 08:55:00 PM 39.9748 66.5714 341° North  Level Estimated
Wed 08:56:00 PM 40.0969 66.5172 341° North  Level Estimated
Wed 08:57:00 PM 40.2190 66.4629 341° North  Level Estimated
Wed 08:58:00 PM 40.3410 66.4083 341° North  Level Estimated
Wed 08:59:00 PM 40.4631 66.3535 341° North  Level Estimated
Wed 09:00:00 PM 40.5851 66.2985 341° North  Level Estimated
Wed 09:01:00 PM 40.7070 66.2433 341° North  Level Estimated
Wed 09:02:00 PM 40.8290 66.1880 341° North  Level Estimated
Wed 09:03:00 PM 40.9509 66.1324 341° North  Level Estimated
Wed 09:04:00 PM 41.0728 66.0766 341° North  Level Estimated
Wed 09:05:00 PM 41.1947 66.0206 341° North  Level Estimated
Wed 09:06:00 PM 41.3166 65.9644 341° North  Level Estimated
Wed 09:07:00 PM 41.4384 65.9079 341° North  Level Estimated
Wed 09:08:00 PM 41.5602 65.8513 341° North  Level Estimated
Wed 09:09:00 PM 41.6819 65.7945 341° North  Level Estimated
Wed 09:10:00 PM 41.8037 65.7374 341° North  Level Estimated
Wed 09:11:00 PM 41.9254 65.6801 341° North  Level Estimated
Wed 09:12:00 PM 42.0471 65.6226 341° North  Level Estimated
Wed 09:13:00 PM 42.1687 65.5649 341° North  Level Estimated
Wed 09:14:00 PM 42.2903 65.5070 341° North  Level Estimated
Wed 09:15:00 PM 42.4119 65.4488 341° North  Level Estimated
Wed 09:16:00 PM 42.5335 65.3904 341° North  Level Estimated
Wed 09:17:00 PM 42.6550 65.3318 340° North  Level Estimated
Wed 09:18:00 PM 42.7765 65.2729 340° North  Level Estimated
Wed 09:19:00 PM 42.8980 65.2139 340° North  Level Estimated
Wed 09:20:00 PM 43.0194 65.1546 340° North  Level Estimated
Wed 09:21:00 PM 43.1408 65.0950 340° North  Level Estimated
Wed 09:22:00 PM 43.2622 65.0352 340° North  Level Estimated
Wed 09:23:00 PM 43.3835 64.9752 340° North  Level Estimated
Wed 09:24:00 PM 43.5049 64.9149 340° North  Level Estimated
Wed 09:25:00 PM 43.6262 64.8544 340° North  Level Estimated
Wed 09:26:00 PM 43.7474 64.7937 340° North  Level Estimated
Wed 09:27:00 PM 43.8686 64.7327 340° North  Level Estimated
Wed 09:28:00 PM 43.9898 64.6714 340° North  Level Estimated
Wed 09:29:00 PM 44.1110 64.6099 340° North  Level Estimated
Wed 09:30:00 PM 44.2321 64.5482 340° North  Level Estimated
Wed 09:31:00 PM 44.3532 64.4862 340° North  Level Estimated
Wed 09:32:00 PM 44.4743 64.4239 340° North  Level Estimated
Wed 09:33:00 PM 44.5953 64.3614 340° North  Level Estimated
Wed 09:34:00 PM 44.7163 64.2986 340° North  Level Estimated
Wed 09:35:00 PM 44.8372 64.2356 340° North  Level Estimated
Wed 09:36:00 PM 44.9581 64.1723 340° North  Level Estimated
Wed 09:37:00 PM 45.0790 64.1087 340° North  Level Estimated
Wed 09:38:00 PM 45.1999 64.0449 340° North  Level Estimated
Wed 09:39:00 PM 45.3207 63.9808 340° North  Level Estimated
Wed 09:40:00 PM 45.4414 63.9164 339° North  Level Estimated
Wed 09:41:00 PM 45.5622 63.8517 339° North  Level Estimated
Wed 09:42:00 PM 45.6829 63.7868 339° North  Level Estimated
Wed 09:43:00 PM 45.8036 63.7215 339° North  Level Estimated
Wed 09:44:00 PM 45.9242 63.6560 339° North  Level Estimated
Wed 09:45:00 PM 46.0448 63.5902 339° North  Level Estimated
Wed 09:46:00 PM 46.1653 63.5242 339° North  Level Estimated
Wed 09:47:00 PM 46.2859 63.4578 339° North  Level Estimated
Wed 09:48:00 PM 46.4063 63.3911 339° North  Level Estimated
Wed 09:49:00 PM 46.5268 63.3242 339° North  Level Estimated
Wed 09:50:00 PM 46.6472 63.2569 339° North  Level Estimated
Wed 09:51:00 PM 46.7675 63.1893 339° North  Level Estimated
Wed 09:52:00 PM 46.8879 63.1215 339° North  Level Estimated
Wed 09:53:00 PM 47.0081 63.0533 339° North  Level Estimated
Wed 09:54:00 PM 47.1284 62.9848 339° North  Level Estimated
Wed 09:55:00 PM 47.2486 62.9161 339° North  Level Estimated
Wed 09:56:00 PM 47.3687 62.8470 339° North  Level Estimated
Wed 09:57:00 PM 47.4888 62.7775 339° North  Level Estimated
Wed 09:58:00 PM 47.6089 62.7078 339° North  Level Estimated
Wed 09:59:00 PM 47.7289 62.6378 339° North  Level Estimated
Wed 10:00:00 PM 47.8489 62.5674 339° North  Level Estimated
Wed 10:01:00 PM 47.9689 62.4967 338° Northwest  Level Estimated
Wed 10:02:00 PM 48.0888 62.4257 338° Northwest  Level Estimated
Wed 10:03:00 PM 48.2086 62.3543 338° Northwest  Level Estimated
Wed 10:04:00 PM 48.3284 62.2826 338° Northwest  Level Estimated
Wed 10:05:00 PM 48.4482 62.2106 338° Northwest  Level Estimated
Wed 10:06:00 PM 48.5679 62.1382 338° Northwest  Level Estimated
Wed 10:07:00 PM 48.6876 62.0655 338° Northwest  Level Estimated
Wed 10:08:00 PM 48.8072 61.9924 338° Northwest  Level Estimated
Wed 10:09:00 PM 48.9268 61.9190 338° Northwest  Level Estimated
Wed 10:10:00 PM 49.0464 61.8452 338° Northwest  Level Estimated
Wed 10:11:00 PM 49.1659 61.7711 338° Northwest  Level Estimated
Wed 10:12:00 PM 49.2853 61.6967 338° Northwest  Level Estimated
Wed 10:13:00 PM 49.4047 61.6218 338° Northwest  Level Estimated
Wed 10:14:00 PM 49.5240 61.5466 338° Northwest  Level Estimated
Wed 10:15:00 PM 49.6433 61.4710 338° Northwest  Level Estimated
Wed 10:16:00 PM 49.7626 61.3951 338° Northwest  Level Estimated
Wed 10:17:00 PM 49.8818 61.3188 338° Northwest  Level Estimated
Wed 10:18:00 PM 50.0009 61.2421 338° Northwest  Level Estimated
Wed 10:19:00 PM 50.1200 61.1650 337° Northwest  Level Estimated
Wed 10:20:00 PM 50.2391 61.0875 337° Northwest  Level Estimated
Wed 10:21:00 PM 50.3581 61.0097 337° Northwest  Level Estimated
Wed 10:22:00 PM 50.4770 60.9314 337° Northwest  Level Estimated
Wed 10:23:00 PM 50.5959 60.8528 337° Northwest  Level Estimated
Wed 10:24:00 PM 50.7147 60.7738 337° Northwest  Level Estimated
Wed 10:25:00 PM 50.8335 60.6943 337° Northwest  Level Estimated
Wed 10:26:00 PM 50.9522 60.6145 337° Northwest  Level Estimated
Wed 10:27:00 PM 51.0709 60.5342 337° Northwest  Level Estimated
Wed 10:28:00 PM 51.1895 60.4536 337° Northwest  Level Estimated
Wed 10:29:00 PM 51.3081 60.3725 337° Northwest  Level Estimated
Wed 10:30:00 PM 51.4266 60.2910 337° Northwest  Level Estimated
Wed 10:31:00 PM 51.5450 60.2091 337° Northwest  Level Estimated
Wed 10:32:00 PM 51.6634 60.1267 337° Northwest  Level Estimated
Wed 10:33:00 PM 51.7817 60.0439 337° Northwest  Level Estimated
Wed 10:34:00 PM 51.9000 59.9607 337° Northwest  Level Estimated
Wed 10:35:00 PM 52.0182 59.8771 336° Northwest  Level Estimated
Wed 10:36:00 PM 52.1364 59.7930 336° Northwest  Level Estimated
Wed 10:37:00 PM 52.2545 59.7084 336° Northwest  Level Estimated
Wed 10:38:00 PM 52.3725 59.6234 336° Northwest  Level Estimated
Wed 10:39:00 PM 52.4905 59.5380 336° Northwest  Level Estimated
Wed 10:40:00 PM 52.6084 59.4520 336° Northwest  Level Estimated
Wed 10:41:00 PM 52.7263 59.3657 336° Northwest  Level Estimated
Wed 10:42:00 PM 52.8441 59.2788 336° Northwest  Level Estimated
Wed 10:43:00 PM 52.9618 59.1915 336° Northwest  Level Estimated
Wed 10:44:00 PM 53.0794 59.1037 336° Northwest  Level Estimated
Wed 10:45:00 PM 53.1970 59.0154 336° Northwest  Level Estimated
Wed 10:46:00 PM 53.3145 58.9267 336° Northwest  Level Estimated
Wed 10:47:00 PM 53.4320 58.8374 336° Northwest  Level Estimated
Wed 10:48:00 PM 53.5494 58.7477 336° Northwest  Level Estimated
Wed 10:49:00 PM 53.6667 58.6575 336° Northwest  Level Estimated
Wed 10:50:00 PM 53.7840 58.5667 335° Northwest  Level Estimated
Wed 10:51:00 PM 53.9012 58.4754 335° Northwest  Level Estimated
Wed 10:52:00 PM 54.0183 58.3837 335° Northwest  Level Estimated
Wed 10:53:00 PM 54.1353 58.2914 335° Northwest  Level Estimated
Wed 10:54:00 PM 54.2523 58.1986 335° Northwest  Level Estimated
Wed 10:55:00 PM 54.3692 58.1052 335° Northwest  Level Estimated
Wed 10:56:00 PM 54.4861 58.0114 335° Northwest  Level Estimated
Wed 10:57:00 PM 54.6028 57.9170 335° Northwest  Level Estimated
Wed 10:58:00 PM 54.7195 57.8220 335° Northwest  Level Estimated
Wed 10:59:00 PM 54.8361 57.7265 335° Northwest  Level Estimated
Wed 11:00:00 PM 54.9527 57.6305 335° Northwest  Level Estimated
Wed 11:01:00 PM 55.0691 57.5339 335° Northwest  Level Estimated
Wed 11:02:00 PM 55.1855 57.4367 335° Northwest  Level Estimated
Wed 11:03:00 PM 55.3018 57.3389 334° Northwest  Level Estimated
Wed 11:04:00 PM 55.4180 57.2406 334° Northwest  Level Estimated
Wed 11:05:00 PM 55.5342 57.1417 334° Northwest  Level Estimated
Wed 11:06:00 PM 55.6503 57.0422 334° Northwest  Level Estimated
Wed 11:07:00 PM 55.7663 56.9422 334° Northwest  Level Estimated
Wed 11:08:00 PM 55.8822 56.8415 334° Northwest  Level Estimated
Wed 11:09:00 PM 55.9980 56.7402 334° Northwest  Level Estimated
Wed 11:10:00 PM 56.1137 56.6383 334° Northwest  Level Estimated
Wed 11:11:00 PM 56.2294 56.5358 334° Northwest  Level Estimated
Wed 11:12:00 PM 56.3450 56.4327 334° Northwest  Level Estimated
Wed 11:13:00 PM 56.4604 56.3290 334° Northwest  Level Estimated
Wed 11:14:00 PM 56.5758 56.2246 334° Northwest  Level Estimated
Wed 11:15:00 PM 56.6912 56.1196 333° Northwest  Level Estimated
Wed 11:16:00 PM 56.8064 56.0139 333° Northwest  Level Estimated
Wed 11:17:00 PM 56.9215 55.9076 333° Northwest  Level Estimated
Wed 11:18:00 PM 57.0365 55.8006 333° Northwest  Level Estimated
Wed 11:19:00 PM 57.1515 55.6930 333° Northwest  Level Estimated
Wed 11:20:00 PM 57.2663 55.5847 333° Northwest  Level Estimated
Wed 11:21:00 PM 57.3811 55.4757 333° Northwest  Level Estimated
Wed 11:22:00 PM 57.4958 55.3660 333° Northwest  Level Estimated
Wed 11:23:00 PM 57.6104 55.2557 333° Northwest  Level Estimated
Wed 11:24:00 PM 57.7248 55.1446 333° Northwest  Level Estimated
Wed 11:25:00 PM 57.8392 55.0328 333° Northwest  Level Estimated
Wed 11:26:00 PM 57.9535 54.9204 332° Northwest  Level Estimated
Wed 11:27:00 PM 58.0677 54.8072 332° Northwest  Level Estimated
Wed 11:28:00 PM 58.1817 54.6933 332° Northwest  Level Estimated
Wed 11:29:00 PM 58.2957 54.5786 332° Northwest  Level Estimated
Wed 11:30:00 PM 58.4096 54.4632 332° Northwest  Level Estimated
Wed 11:31:00 PM 58.5234 54.3471 332° Northwest  Level Estimated
Wed 11:32:00 PM 58.6370 54.2302 332° Northwest  Level Estimated
Wed 11:33:00 PM 58.7506 54.1125 332° Northwest  Level Estimated
Wed 11:34:00 PM 58.8640 53.9941 332° Northwest  Level Estimated
Wed 11:35:00 PM 58.9774 53.8749 332° Northwest  Level Estimated
Wed 11:36:00 PM 59.0906 53.7549 331° Northwest  Level Estimated
Wed 11:37:00 PM 59.2037 53.6341 331° Northwest  Level Estimated
Wed 11:38:00 PM 59.3167 53.5125 331° Northwest  Level Estimated
Wed 11:39:00 PM 59.4296 53.3901 331° Northwest  Level Estimated
Wed 11:40:00 PM 59.5424 53.2669 331° Northwest  Level Estimated
Wed 11:41:00 PM 59.6550 53.1428 331° Northwest  Level Estimated
Wed 11:42:00 PM 59.7676 53.0180 331° Northwest  Level Estimated
Wed 11:43:00 PM 59.8800 52.8922 331° Northwest  Level Estimated
Wed 11:44:00 PM 59.9923 52.7657 331° Northwest  Level Estimated
Wed 11:45:00 PM 60.1045 52.6382 330° Northwest  Level Estimated
Wed 11:46:00 PM 60.2165 52.5099 330° Northwest  Level Estimated
Wed 11:47:00 PM 60.3285 52.3807 330° Northwest  Level Estimated
Wed 11:48:00 PM 60.4403 52.2506 330° Northwest  Level Estimated
Wed 11:50:25 PM 60.7099 51.9326 330° Northwest  Level Estimated
Wed 11:52:00 PM 60.8862 51.7213 330° Northwest  Level Estimated
Wed 11:53:00 PM 60.9973 51.5866 330° Northwest  Level Estimated
Wed 11:54:00 PM 61.1084 51.4510 329° Northwest  Level Estimated
Wed 11:55:00 PM 61.2192 51.3144 329° Northwest  Level Estimated
Wed 11:56:00 PM 61.3300 51.1769 329° Northwest  Level Estimated
Wed 11:57:00 PM 61.4406 51.0384 329° Northwest  Level Estimated
Wed 11:58:00 PM 61.5510 50.8989 329° Northwest  Level Estimated
Wed 11:59:00 PM 61.6614 50.7584 329° Northwest  Level Estimated
Thu 12:00:00 AM 61.7715 50.6169 329° Northwest  Level Estimated
Thu 12:01:00 AM 61.8815 50.4744 329° Northwest  Level Estimated
Thu 12:02:00 AM 61.9914 50.3309 328° Northwest  Level Estimated
Thu 12:03:00 AM 62.1012 50.1863 328° Northwest  Level Estimated
Thu 12:04:00 AM 62.2107 50.0407 328° Northwest  Level Estimated
Thu 12:05:00 AM 62.3201 49.8940 328° Northwest  Level Estimated
Thu 12:06:00 AM 62.4294 49.7463 328° Northwest  Level Estimated
Thu 12:07:00 AM 62.5385 49.5975 328° Northwest  Level Estimated
Thu 12:08:00 AM 62.6475 49.4475 328° Northwest  Level Estimated
Thu 12:09:00 AM 62.7563 49.2965 328° Northwest  Level Estimated
Thu 12:10:00 AM 62.8649 49.1443 327° Northwest  Level Estimated
Thu 12:11:00 AM 62.9733 48.9911 327° Northwest  Level Estimated
Thu 12:12:00 AM 63.0816 48.8367 327° Northwest  Level Estimated
Thu 12:13:00 AM 63.1898 48.6811 327° Northwest  Level Estimated
Thu 12:14:00 AM 63.2977 48.5243 327° Northwest  Level Estimated
Thu 12:15:00 AM 63.4055 48.3664 327° Northwest  Level Estimated
Thu 12:16:00 AM 63.5131 48.2073 327° Northwest  Level Estimated
Thu 12:17:00 AM 63.6205 48.0470 326° Northwest  Level Estimated
Thu 12:18:00 AM 63.7277 47.8855 326° Northwest  Level Estimated
Thu 12:19:00 AM 63.8348 47.7228 326° Northwest  Level Estimated
Thu 12:20:00 AM 63.9417 47.5588 326° Northwest  Level Estimated
Thu 12:21:00 AM 64.0484 47.3935 326° Northwest  Level Estimated
Thu 12:22:00 AM 64.1549 47.2270 326° Northwest  Level Estimated
Thu 12:23:00 AM 64.2612 47.0592 326° Northwest  Level Estimated
Thu 12:24:00 AM 64.3673 46.8901 325° Northwest  Level Estimated
Thu 12:25:00 AM 64.4732 46.7197 325° Northwest  Level Estimated
Thu 12:26:00 AM 64.5789 46.5480 325° Northwest  Level Estimated
Thu 12:27:00 AM 64.6845 46.3749 325° Northwest  Level Estimated
Thu 12:28:00 AM 64.7898 46.2005 325° Northwest  Level Estimated
Thu 12:29:00 AM 64.8949 46.0247 325° Northwest  Level Estimated
Thu 12:30:00 AM 64.9998 45.8476 325° Northwest  Level Estimated
Thu 12:31:00 AM 65.1045 45.6690 324° Northwest  Level Estimated
Thu 12:32:00 AM 65.2090 45.4890 324° Northwest  Level Estimated
Thu 12:33:00 AM 65.3132 45.3076 324° Northwest  Level Estimated
Thu 12:34:00 AM 65.4173 45.1248 324° Northwest  Level Estimated
Thu 12:35:00 AM 65.5211 44.9405 324° Northwest  Level Estimated
Thu 12:36:00 AM 65.6247 44.7548 324° Northwest  Level Estimated
Thu 12:37:00 AM 65.7280 44.5675 323° Northwest  Level Estimated
Thu 12:38:00 AM 65.8312 44.3788 323° Northwest  Level Estimated
Thu 12:39:00 AM 65.9341 44.1885 323° Northwest  Level Estimated
Thu 12:40:00 AM 66.0367 43.9967 323° Northwest  Level Estimated
Thu 12:41:00 AM 66.1391 43.8033 323° Northwest  Level Estimated
Thu 12:42:00 AM 66.2413 43.6084 322° Northwest  Level Estimated
Thu 12:43:00 AM 66.3432 43.4119 322° Northwest  Level Estimated
Thu 12:44:00 AM 66.4449 43.2138 322° Northwest  Level Estimated
Thu 12:45:00 AM 66.5464 43.0141 322° Northwest  Level Estimated
Thu 12:46:00 AM 66.6475 42.8127 322° Northwest  Level Estimated
Thu 12:47:00 AM 66.7484 42.6097 322° Northwest  Level Estimated
Thu 12:48:00 AM 66.8491 42.4050 321° Northwest  Level Estimated
Thu 12:49:00 AM 66.9495 42.1987 321° Northwest  Level Estimated
Thu 12:50:00 AM 67.0496 41.9906 321° Northwest  Level Estimated
Thu 12:51:00 AM 67.1494 41.7808 321° Northwest  Level Estimated
Thu 12:52:00 AM 67.2490 41.5693 321° Northwest  Level Estimated
Thu 12:53:00 AM 67.3483 41.3560 320° Northwest  Level Estimated
Thu 12:54:00 AM 67.4473 41.1409 320° Northwest  Level Estimated
Thu 12:55:00 AM 67.5460 40.9241 320° Northwest  Level Estimated
Thu 12:56:00 AM 67.6444 40.7054 320° Northwest  Level Estimated
Thu 12:57:00 AM 67.7425 40.4849 320° Northwest  Level Estimated
Thu 12:58:00 AM 67.8403 40.2626 319° Northwest  Level Estimated
Thu 12:59:00 AM 67.9379 40.0383 319° Northwest  Level Estimated
Thu 01:00:00 AM 68.0351 39.8122 319° Northwest  Level Estimated
Thu 01:01:00 AM 68.1320 39.5842 319° Northwest  Level Estimated
Thu 01:02:00 AM 68.2285 39.3543 319° Northwest  Level Estimated
Thu 01:03:00 AM 68.3248 39.1224 318° Northwest  Level Estimated
Thu 01:04:00 AM 68.4207 38.8885 318° Northwest  Level Estimated
Thu 01:05:00 AM 68.5163 38.6527 318° Northwest  Level Estimated
Thu 01:06:00 AM 68.6116 38.4149 318° Northwest  Level Estimated
Thu 01:07:00 AM 68.7066 38.1750 318° Northwest  Level Estimated
Thu 01:08:00 AM 68.8011 37.9331 317° Northwest  Level Estimated
Thu 01:09:00 AM 68.8954 37.6891 317° Northwest  Level Estimated
Thu 01:10:00 AM 68.9893 37.4430 317° Northwest  Level Estimated
Thu 01:11:00 AM 69.0828 37.1949 317° Northwest  Level Estimated
Thu 01:12:00 AM 69.1760 36.9446 316° Northwest  Level Estimated
Thu 01:13:00 AM 69.2688 36.6921 316° Northwest  Level Estimated
Thu 01:14:00 AM 69.3612 36.4375 316° Northwest  Level Estimated
Thu 01:15:00 AM 69.4533 36.1808 316° Northwest  Level Estimated
Thu 01:16:00 AM 69.5450 35.9218 315° West  Level Estimated
Thu 01:17:00 AM 69.6363 35.6605 315° West  Level Estimated
Thu 01:18:00 AM 69.7272 35.3971 315° West  Level Estimated
Thu 01:19:00 AM 69.8177 35.1313 315° West  Level Estimated
Thu 01:20:00 AM 69.9078 34.8633 314° West  Level Estimated
Thu 01:21:00 AM 69.9975 34.5930 314° West  Level Estimated
Thu 01:22:00 AM 70.0867 34.3203 314° West  Level Estimated
Thu 01:23:00 AM 70.1756 34.0453 314° West  Level Estimated
Thu 01:24:00 AM 70.2640 33.7679 313° West  Level Estimated
Thu 01:25:00 AM 70.3520 33.4881 313° West  Level Estimated
Thu 01:26:00 AM 70.4396 33.2059 313° West  Level Estimated
Thu 01:27:00 AM 70.5267 32.9213 313° West  Level Estimated
Thu 01:28:00 AM 70.6134 32.6343 312° West  Level Estimated
Thu 01:29:00 AM 70.6996 32.3447 312° West  Level Estimated
Thu 01:30:00 AM 70.7854 32.0527 312° West  Level Estimated
Thu 01:31:00 AM 70.8707 31.7581 312° West  Level Estimated
Thu 01:32:00 AM 70.9555 31.4610 311° West  Level Estimated
Thu 01:33:00 AM 71.0398 31.1614 311° West  Level Estimated
Thu 01:34:00 AM 71.1237 30.8592 311° West  Level Estimated
Thu 01:35:00 AM 71.2071 30.5544 310° West  Level Estimated
Thu 01:36:00 AM 71.2899 30.2470 310° West  Level Estimated
Thu 01:37:00 AM 71.3723 29.9370 310° West  Level Estimated
Thu 01:38:00 AM 71.4541 29.6243 310° West  Level Estimated
Thu 01:39:00 AM 71.5355 29.3089 309° West  Level Estimated
Thu 01:40:00 AM 71.6163 28.9909 309° West  Level Estimated
Thu 01:41:00 AM 71.6966 28.6702 309° West  Level Estimated
Thu 01:42:00 AM 71.7763 28.3467 308° West  Level Estimated
Thu 01:43:00 AM 71.8555 28.0205 308° West  Level Estimated
Thu 01:44:00 AM 71.9341 27.6916 308° West  Level Estimated
Thu 01:45:00 AM 72.0122 27.3599 307° West  Level Estimated
Thu 01:46:00 AM 72.0897 27.0254 307° West  Level Estimated
Thu 01:47:00 AM 72.1666 26.6881 307° West  Level Estimated
Thu 01:48:00 AM 72.2429 26.3480 306° West  Level Estimated
Thu 01:49:00 AM 72.3187 26.0050 306° West  Level Estimated
Thu 01:50:00 AM 72.3938 25.6592 306° West  Level Estimated
Thu 01:51:00 AM 72.4684 25.3106 305° West  Level Estimated
Thu 01:52:00 AM 72.5423 24.9591 305° West  Level Estimated
Thu 01:53:00 AM 72.6156 24.6047 305° West  Level Estimated
Thu 01:54:00 AM 72.6883 24.2474 304° West  Level Estimated
Thu 01:55:00 AM 72.7603 23.8871 304° West  Level Estimated
Thu 01:56:00 AM 72.8317 23.5240 304° West  Level Estimated
Thu 01:57:00 AM 72.9025 23.1580 303° West  Level Estimated
Thu 01:58:00 AM 72.9725 22.7890 303° West  Level Estimated
Thu 01:59:00 AM 73.0420 22.4170 303° West  Level Estimated
Thu 02:00:00 AM 73.1107 22.0422 302° West  Level Estimated
Thu 02:01:00 AM 73.1787 21.6643 302° West  Level Estimated
Thu 02:02:00 AM 73.2461 21.2835 302° West  Level Estimated
Thu 02:03:00 AM 73.3127 20.8997 301° West  Level Estimated
Thu 02:04:00 AM 73.3786 20.5130 301° West  Level Estimated
Thu 02:05:00 AM 73.4438 20.1232 301° West  Level Estimated
Thu 02:06:00 AM 73.5083 19.7305 300° West  Level Estimated
Thu 02:07:00 AM 73.5721 19.3348 300° West  Level Estimated
Thu 02:08:00 AM 73.6351 18.9362 299° West  Level Estimated
Thu 02:09:00 AM 73.6973 18.5345 299° West  Level Estimated
Thu 02:10:00 AM 73.7588 18.1299 299° West  Level Estimated
Thu 02:11:00 AM 73.8195 17.7223 298° West  Level Estimated
Thu 02:12:00 AM 73.8794 17.3117 298° West  Level Estimated
Thu 02:13:00 AM 73.9385 16.8982 297° West  Level Estimated
Thu 02:14:00 AM 73.9968 16.4817 297° West  Level Estimated
Thu 02:15:00 AM 74.0544 16.0623 297° West  Level Estimated
Thu 02:16:00 AM 74.1111 15.6399 296° West  Level Estimated
Thu 02:17:00 AM 74.1669 15.2146 296° West  Level Estimated
Thu 02:18:00 AM 74.2220 14.7864 295° West  Level Estimated
Thu 02:19:00 AM 74.2762 14.3553 295° West  Level Estimated
Thu 02:20:00 AM 74.3295 13.9213 295° West  Level Estimated
Thu 02:21:00 AM 74.3820 13.4845 294° West  Level Estimated
Thu 02:22:00 AM 74.4336 13.0448 294° West  Level Estimated
Thu 02:23:00 AM 74.4844 12.6023 293° West  Level Estimated
Thu 02:24:00 AM 74.5342 12.1569 293° West  Level Estimated
Thu 02:25:00 AM 74.5832 11.7088 293° West  Level Estimated
Thu 02:26:00 AM 74.6312 11.2579 292° West  Level Estimated
Thu 02:27:00 AM 74.6784 10.8043 292° West  Level Estimated
Thu 02:28:00 AM 74.7246 10.3480 291° West  Level Estimated
Thu 02:29:00 AM 74.7699 9.8890 291° West  Level Estimated
Thu 02:30:00 AM 74.8143 9.4274 290° West  Level Estimated
Thu 02:31:00 AM 74.8577 8.9631 290° West  Level Estimated
Thu 02:32:00 AM 74.9001 8.4963 289° West  Level Estimated
Thu 02:33:00 AM 74.9416 8.0269 289° West  Level Estimated
Thu 02:34:00 AM 74.9821 7.5550 289° West  Level Estimated
Thu 02:35:00 AM 75.0217 7.0807 288° West  Level Estimated
Thu 02:36:00 AM 75.0602 6.6039 288° West  Level Estimated
Thu 02:37:00 AM 75.0978 6.1247 287° West  Level Estimated
Thu 02:38:00 AM 75.1344 5.6433 287° West  Level Estimated
Thu 02:39:00 AM 75.1700 5.1595 286° West  Level Estimated
Thu 02:40:00 AM 75.2045 4.6735 286° West  Level Estimated
Thu 02:41:00 AM 75.2380 4.1853 285° West  Level Estimated
Thu 02:42:00 AM 75.2705 3.6949 285° West  Level Estimated
Thu 02:43:00 AM 75.3019 3.2025 284° West  Level Estimated
Thu 02:44:00 AM 75.3324 2.7081 284° West  Level Estimated
Thu 02:45:00 AM 75.3617 2.2116 283° West  Level Estimated
Thu 02:46:00 AM 75.3900 1.7133 283° West  Level Estimated
Thu 02:47:00 AM 75.4173 1.2131 282° West  Level Estimated
Thu 02:48:00 AM 75.4435 0.7111 282° West  Level Estimated
Thu 02:49:00 AM 75.4686 0.2073 281° West  Level Estimated
Thu 02:50:00 AM 75.4926 -0.2981 281° West  Level Estimated
Thu 02:51:00 AM 75.5155 -0.8051 280° West  Level Estimated
Thu 02:52:00 AM 75.5374 -1.3137 280° West  Level Estimated
Thu 02:53:00 AM 75.5581 -1.8237 280° West  Level Estimated
Thu 02:54:00 AM 75.5778 -2.3351 279° West  Level Estimated
Thu 02:55:00 AM 75.5963 -2.8478 279° West  Level Estimated
Thu 02:56:00 AM 75.6138 -3.3618 278° West  Level Estimated
Thu 02:57:00 AM 75.6301 -3.8770 278° West  Level Estimated
Thu 02:58:00 AM 75.6453 -4.3933 277° West  Level Estimated
Thu 02:59:00 AM 75.6594 -4.9106 277° West  Level Estimated
Thu 03:00:00 AM 75.6724 -5.4289 276° West  Level Estimated
Thu 03:01:00 AM 75.6842 -5.9480 276° West  Level Estimated
Thu 03:02:00 AM 75.6949 -6.4680 275° West  Level Estimated
Thu 03:03:00 AM 75.7045 -6.9887 275° West  Level Estimated
Thu 03:04:00 AM 75.7130 -7.5100 274° West  Level Estimated
Thu 03:05:00 AM 75.7203 -8.0319 274° West  Level Estimated
Thu 03:06:00 AM 75.7265 -8.5543 273° West  Level Estimated
Thu 03:07:00 AM 75.7315 -9.0770 272° West  Level Estimated
Thu 03:08:00 AM 75.7354 -9.6001 272° West  Level Estimated
Thu 03:09:00 AM 75.7382 -10.1235 271° West  Level Estimated
Thu 03:10:00 AM 75.7398 -10.6470 271° West  Level Estimated
Thu 03:11:00 AM 75.7403 -11.1705 270° West  Level Estimated
Thu 03:12:00 AM 75.7396 -11.6941 270° West  Level Estimated
Thu 03:13:00 AM 75.7378 -12.2176 269° West  Level Estimated
Thu 03:14:00 AM 75.7348 -12.7409 269° West  Level Estimated
Thu 03:15:00 AM 75.7308 -13.2639 268° West  Level Estimated
Thu 03:16:00 AM 75.7255 -13.7866 268° West  Level Estimated
Thu 03:17:00 AM 75.7191 -14.3089 267° West  Level Estimated
Thu 03:18:00 AM 75.7116 -14.8307 267° West  Level Estimated
Thu 03:19:00 AM 75.7030 -15.3519 266° West  Level Estimated
Thu 03:20:00 AM 75.6932 -15.8725 266° West  Level Estimated
Thu 03:21:00 AM 75.6823 -16.3923 265° West  Level Estimated
Thu 03:22:00 AM 75.6703 -16.9114 265° West  Level Estimated
Thu 03:23:00 AM 75.6571 -17.4295 264° West  Level Estimated
Thu 03:24:00 AM 75.6428 -17.9466 264° West  Level Estimated
Thu 03:25:00 AM 75.6274 -18.4627 263° West  Level Estimated
Thu 03:26:00 AM 75.6109 -18.9777 263° West  Level Estimated
Thu 03:27:00 AM 75.5933 -19.4915 262° West  Level Estimated
Thu 03:28:00 AM 75.5745 -20.0040 262° West  Level Estimated
Thu 03:29:00 AM 75.5547 -20.5152 261° West  Level Estimated
Thu 03:30:00 AM 75.5338 -21.0250 261° West  Level Estimated
Thu 03:31:00 AM 75.5117 -21.5333 260° West  Level Estimated
Thu 03:32:00 AM 75.4886 -22.0400 260° West  Level Estimated
Thu 03:33:00 AM 75.4644 -22.5451 259° West  Level Estimated
Thu 03:34:00 AM 75.4391 -23.0486 259° West  Level Estimated
Thu 03:35:00 AM 75.4128 -23.5503 258° West  Level Estimated
Thu 03:36:00 AM 75.3853 -24.0502 258° West  Level Estimated
Thu 03:37:00 AM 75.3569 -24.5482 257° West  Level Estimated
Thu 03:38:00 AM 75.3273 -25.0443 257° West  Level Estimated
Thu 03:39:00 AM 75.2967 -25.5385 257° West  Level Estimated
Thu 03:40:00 AM 75.2651 -26.0305 256° West  Level Estimated
Thu 03:41:00 AM 75.2324 -26.5205 256° West  Level Estimated
Thu 03:42:00 AM 75.1988 -27.0084 255° West  Level Estimated
Thu 03:43:00 AM 75.1640 -27.4940 255° West  Level Estimated
Thu 03:44:00 AM 75.1283 -27.9774 254° West  Level Estimated
Thu 03:45:00 AM 75.0916 -28.4585 254° West  Level Estimated
Thu 03:46:00 AM 75.0538 -28.9372 253° West  Level Estimated
Thu 03:47:00 AM 75.0151 -29.4136 253° West  Level Estimated
Thu 03:48:00 AM 74.9754 -29.8875 252° West  Level Estimated
Thu 03:49:00 AM 74.9347 -30.3590 252° West  Level Estimated
Thu 03:50:00 AM 74.8931 -30.8279 251° West  Level Estimated
Thu 03:51:00 AM 74.8504 -31.2943 251° West  Level Estimated
Thu 03:52:00 AM 74.8069 -31.7582 250° West  Level Estimated
Thu 03:53:00 AM 74.7624 -32.2194 250° West  Level Estimated
Thu 03:54:00 AM 74.7169 -32.6779 250° West  Level Estimated
Thu 03:55:00 AM 74.6705 -33.1338 249° West  Level Estimated
Thu 03:56:00 AM 74.6232 -33.5869 249° West  Level Estimated
Thu 03:57:00 AM 74.5750 -34.0374 248° West  Level Estimated
Thu 03:58:00 AM 74.5259 -34.4850 248° West  Level Estimated
Thu 03:59:00 AM 74.4759 -34.9299 247° West  Level Estimated
Thu 04:00:00 AM 74.4250 -35.3719 247° West  Level Estimated
Thu 04:01:00 AM 74.3733 -35.8112 247° West  Level Estimated
Thu 04:02:00 AM 74.3206 -36.2475 246° West  Level Estimated
Thu 04:03:00 AM 74.2671 -36.6810 246° West  Level Estimated
Thu 04:04:00 AM 74.2128 -37.1117 245° Southwest  Level Estimated
Thu 04:05:00 AM 74.1576 -37.5394 245° Southwest  Level Estimated
Thu 04:06:00 AM 74.1016 -37.9642 244° Southwest  Level Estimated
Thu 04:07:00 AM 74.0447 -38.3860 244° Southwest  Level Estimated
Thu 04:08:00 AM 73.9871 -38.8050 244° Southwest  Level Estimated
Thu 04:09:00 AM 73.9286 -39.2210 243° Southwest  Level Estimated
Thu 04:10:00 AM 73.8694 -39.6340 243° Southwest  Level Estimated
Thu 04:11:00 AM 73.8093 -40.0440 242° Southwest  Level Estimated
Thu 04:12:00 AM 73.7485 -40.4511 242° Southwest  Level Estimated
Thu 04:13:00 AM 73.6869 -40.8553 242° Southwest  Level Estimated
Thu 04:14:00 AM 73.6245 -41.2564 241° Southwest  Level Estimated
Thu 04:15:00 AM 73.5614 -41.6546 241° Southwest  Level Estimated
Thu 04:16:00 AM 73.4976 -42.0498 241° Southwest  Level Estimated
Thu 04:17:00 AM 73.4330 -42.4420 240° Southwest  Level Estimated
Thu 04:18:00 AM 73.3676 -42.8312 240° Southwest  Level Estimated
Thu 04:19:00 AM 73.3016 -43.2175 239° Southwest  Level Estimated
Thu 04:20:00 AM 73.2348 -43.6007 239° Southwest  Level Estimated
Thu 04:21:00 AM 73.1674 -43.9811 239° Southwest  Level Estimated
Thu 04:22:00 AM 73.0992 -44.3584 238° Southwest  Level Estimated
Thu 04:23:00 AM 73.0303 -44.7328 238° Southwest  Level Estimated
Thu 04:24:00 AM 72.9608 -45.1042 238° Southwest  Level Estimated
Thu 04:25:00 AM 72.8906 -45.4727 237° Southwest  Level Estimated
Thu 04:26:00 AM 72.8198 -45.8383 237° Southwest  Level Estimated
Thu 04:27:00 AM 72.7483 -46.2009 237° Southwest  Level Estimated
Thu 04:28:00 AM 72.6761 -46.5607 236° Southwest  Level Estimated
Thu 04:29:00 AM 72.6034 -46.9175 236° Southwest  Level Estimated
Thu 04:30:00 AM 72.5300 -47.2714 235° Southwest  Level Estimated
Thu 04:31:00 AM 72.4559 -47.6224 235° Southwest  Level Estimated
Thu 04:32:00 AM 72.3813 -47.9706 235° Southwest  Level Estimated
Thu 04:33:00 AM 72.3060 -48.3159 234° Southwest  Level Estimated
Thu 04:34:00 AM 72.2302 -48.6584 234° Southwest  Level Estimated
Thu 04:35:00 AM 72.1537 -48.9980 234° Southwest  Level Estimated
Thu 04:36:00 AM 72.0767 -49.3349 233° Southwest  Level Estimated
Thu 04:37:00 AM 71.9991 -49.6689 233° Southwest  Level Estimated
Thu 04:38:00 AM 71.9210 -50.0001 233° Southwest  Level Estimated
Thu 04:39:00 AM 71.8422 -50.3286 233° Southwest  Level Estimated
Thu 04:40:00 AM 71.7629 -50.6543 232° Southwest  Level Estimated
Thu 04:41:00 AM 71.6831 -50.9773 232° Southwest  Level Estimated
Thu 04:42:00 AM 71.6028 -51.2976 232° Southwest  Level Estimated
Thu 04:43:00 AM 71.5219 -51.6152 231° Southwest  Level Estimated
Thu 04:44:00 AM 71.4405 -51.9301 231° Southwest  Level Estimated
Thu 04:45:00 AM 71.3585 -52.2423 231° Southwest  Level Estimated
Thu 04:46:00 AM 71.2761 -52.5519 230° Southwest  Level Estimated
Thu 04:47:00 AM 71.1931 -52.8589 230° Southwest  Level Estimated
Thu 04:48:00 AM 71.1097 -53.1632 230° Southwest  Level Estimated
Thu 04:49:00 AM 71.0257 -53.4650 230° Southwest  Level Estimated
Thu 04:50:00 AM 70.9413 -53.7642 229° Southwest  Level Estimated
Thu 04:51:00 AM 70.8564 -54.0609 229° Southwest  Level Estimated
Thu 04:52:00 AM 70.7710 -54.3550 229° Southwest  Level Estimated
Thu 04:53:00 AM 70.6852 -54.6466 228° Southwest  Level Estimated
Thu 04:54:00 AM 70.5989 -54.9358 228° Southwest  Level Estimated
Thu 04:55:00 AM 70.5121 -55.2224 228° Southwest  Level Estimated
Thu 04:56:00 AM 70.4249 -55.5066 228° Southwest  Level Estimated
Thu 04:57:00 AM 70.3373 -55.7884 227° Southwest  Level Estimated
Thu 04:58:00 AM 70.2492 -56.0678 227° Southwest  Level Estimated
Thu 04:59:00 AM 70.1607 -56.3448 227° Southwest  Level Estimated
Thu 05:00:00 AM 70.0718 -56.6194 227° Southwest  Level Estimated
Thu 05:01:00 AM 69.9824 -56.8917 226° Southwest  Level Estimated
Thu 05:02:00 AM 69.8927 -57.1616 226° Southwest  Level Estimated
Thu 05:03:00 AM 69.8025 -57.4292 226° Southwest  Level Estimated
Thu 05:04:00 AM 69.7119 -57.6946 226° Southwest  Level Estimated
Thu 05:05:00 AM 69.6210 -57.9577 225° Southwest  Level Estimated
Thu 05:06:00 AM 69.5296 -58.2185 225° Southwest  Level Estimated
Thu 05:07:00 AM 69.4379 -58.4772 225° Southwest  Level Estimated
Thu 05:08:00 AM 69.3457 -58.7336 225° Southwest  Level Estimated
Thu 05:09:00 AM 69.2532 -58.9878 224° Southwest  Level Estimated
Thu 05:10:00 AM 69.1604 -59.2399 224° Southwest  Level Estimated
Thu 05:11:00 AM 69.0671 -59.4898 224° Southwest  Level Estimated
Thu 05:12:00 AM 68.9735 -59.7376 224° Southwest  Level Estimated
Thu 05:13:00 AM 68.8796 -59.9833 223° Southwest  Level Estimated
Thu 05:14:00 AM 68.7853 -60.2270 223° Southwest  Level Estimated
Thu 05:15:00 AM 68.6906 -60.4686 223° Southwest  Level Estimated
Thu 05:16:00 AM 68.5956 -60.7081 223° Southwest  Level Estimated
Thu 05:17:00 AM 68.5003 -60.9456 222° Southwest  Level Estimated
Thu 05:18:00 AM 68.4046 -61.1811 222° Southwest  Level Estimated
Thu 05:19:00 AM 68.3087 -61.4146 222° Southwest  Level Estimated
Thu 05:20:00 AM 68.2123 -61.6462 222° Southwest  Level Estimated
Thu 05:21:00 AM 68.1157 -61.8758 222° Southwest  Level Estimated
Thu 05:22:00 AM 68.0188 -62.1035 221° Southwest  Level Estimated
Thu 05:23:00 AM 67.9215 -62.3293 221° Southwest  Level Estimated
Thu 05:24:00 AM 67.8239 -62.5532 221° Southwest  Level Estimated
Thu 05:25:00 AM 67.7261 -62.7752 221° Southwest  Level Estimated
Thu 05:26:00 AM 67.6279 -62.9954 221° Southwest  Level Estimated
Thu 05:27:00 AM 67.5294 -63.2138 220° Southwest  Level Estimated
Thu 05:28:00 AM 67.4307 -63.4303 220° Southwest  Level Estimated
Thu 05:29:00 AM 67.3316 -63.6451 220° Southwest  Level Estimated
Thu 05:30:00 AM 67.2323 -63.8581 220° Southwest  Level Estimated
Thu 05:31:00 AM 67.1327 -64.0693 220° Southwest  Level Estimated
Thu 05:32:00 AM 67.0328 -64.2788 219° Southwest  Level Estimated
Thu 05:33:00 AM 66.9326 -64.4866 219° Southwest  Level Estimated
Thu 05:34:00 AM 66.8322 -64.6927 219° Southwest  Level Estimated
Thu 05:35:00 AM 66.7315 -64.8971 219° Southwest  Level Estimated
Thu 05:36:00 AM 66.6305 -65.0998 219° Southwest  Level Estimated
Thu 05:37:00 AM 66.5293 -65.3009 218° Southwest  Level Estimated
Thu 05:38:00 AM 66.4279 -65.5003 218° Southwest  Level Estimated
Thu 05:39:00 AM 66.3261 -65.6982 218° Southwest  Level Estimated
Thu 05:40:00 AM 66.2242 -65.8944 218° Southwest  Level Estimated
Thu 05:41:00 AM 66.1219 -66.0891 218° Southwest  Level Estimated
Thu 05:42:00 AM 66.0195 -66.2822 217° Southwest  Level Estimated
Thu 05:43:00 AM 65.9168 -66.4737 217° Southwest  Level Estimated
Thu 05:44:00 AM 65.8139 -66.6637 217° Southwest  Level Estimated
Thu 05:45:00 AM 65.7107 -66.8522 217° Southwest  Level Estimated
Thu 05:46:00 AM 65.6073 -67.0392 217° Southwest  Level Estimated
Thu 05:47:00 AM 65.5036 -67.2247 217° Southwest  Level Estimated
Thu 05:48:00 AM 65.3998 -67.4087 216° Southwest  Level Estimated
Thu 05:49:00 AM 65.2957 -67.5913 216° Southwest  Level Estimated
Thu 05:50:00 AM 65.1914 -67.7725 216° Southwest  Level Estimated
Thu 05:51:00 AM 65.0869 -67.9522 216° Southwest  Level Estimated
Thu 05:51:26 AM 65.0350 -48.8220 216° Southwest 513 590 36,000  Level FlightAware ADS-B
Thu 05:52:00 AM 64.9822 -68.1305 216° Southwest  Level Estimated
Thu 05:52:20 AM 65.0270 -49.1240 267° West 514 592 36,000  Level FlightAware ADS-B
Thu 05:53:00 AM 65.0210 -49.3150 266° West 514 592 36,000  Level FlightAware ADS-B
Thu 05:53:48 AM 65.0140 -49.5440 266° West 514 592 36,000  Level FlightAware ADS-B
Thu 05:54:24 AM 65.0090 -49.7160 266° West 514 592 36,000  Level FlightAware ADS-B
Thu 05:55:13 AM 65.0020 -49.9500 266° West 514 592 36,000  Level FlightAware ADS-B
Thu 05:56:30 AM 64.9910 -50.3170 266° West 514 592 36,000  Level FlightAware ADS-B
Thu 05:57:19 AM 64.9840 -50.5510 266° West 514 592 36,000  Level FlightAware ADS-B
Thu 05:57:55 AM 64.9790 -50.7220 266° West 514 592 36,000  Level FlightAware ADS-B
Thu 05:58:43 AM 64.9720 -50.9510 266° West 514 592 36,000  Level FlightAware ADS-B
Thu 05:59:19 AM 64.9670 -51.1230 266° West 514 592 36,000  Level FlightAware ADS-B
Thu 06:00:02 AM 64.8840 -51.6780 251° West 503 579 36,000  Level FlightAware ADS-B
Thu 06:00:41 AM 64.8680 -51.8800 260° West 503 579 36,000  Level FlightAware ADS-B
Thu 06:01:21 AM 64.8530 -52.0630 259° West 503 579 36,000  Level FlightAware ADS-B
Thu 06:02:09 AM 64.8350 -52.2820 259° West 503 579 36,000  Level FlightAware ADS-B
Thu 06:02:45 AM 64.8210 -52.4470 259° West 503 579 36,000  Level FlightAware ADS-B
Thu 06:03:33 AM 64.8030 -52.6660 259° West 503 579 36,000  Level FlightAware ADS-B
Thu 06:04:10 AM 64.7890 -52.8340 259° West 503 579 36,000  Level FlightAware ADS-B
Thu 06:04:58 AM 64.7710 -53.0530 259° West 503 579 36,000  Level FlightAware ADS-B
Thu 06:05:37 AM 64.7560 -53.2310 259° West 503 579 36,000  Level FlightAware ADS-B
Thu 06:06:19 AM 64.7400 -53.4220 259° West 503 579 36,000  Level FlightAware ADS-B
Thu 06:07:07 AM 64.7220 -53.6400 259° West 503 579 36,000  Level FlightAware ADS-B
Thu 06:07:43 AM 64.7090 -53.8040 260° West 503 579 36,000  Level FlightAware ADS-B
Thu 06:08:31 AM 64.6900 -54.0220 259° West 503 579 36,000  Level FlightAware ADS-B
Thu 06:09:08 AM 64.6760 -54.1900 259° West 503 579 36,000  Level FlightAware ADS-B
Thu 06:09:54 AM 64.6590 -54.3990 259° West 503 579 36,000  Level FlightAware ADS-B
Thu 06:10:28 AM 64.6460 -54.5530 259° West 503 579 36,000  Level FlightAware ADS-B
Thu 06:11:02 AM 64.6000 -55.0833 259° West 500 575 36,000  Level Gander Center
Thu 06:11:17 AM 64.6000 -55.1500 270° West 510 587 36,000  Level Gander Center
Thu 06:12:17 AM 64.5667 -55.4667 256° West 500 575 36,000  Level Gander Center
Thu 06:13:17 AM 64.5500 -55.7833 263° West 500 575 36,000  Level Gander Center
Thu 06:14:17 AM 64.5000 -56.1000 250° West 500 575 36,000  Level Gander Center
Thu 06:15:17 AM 64.4667 -56.4167 256° West 500 575 36,000  Level Gander Center
Thu 06:16:02 AM 64.4333 -56.6500 252° West 500 575 36,000  Level Gander Center
Thu 06:17:02 AM 64.4167 -56.9667 263° West 500 575 36,000  Level Gander Center
Thu 06:18:02 AM 64.3667 -57.2333 247° West 500 575 36,000  Level Gander Center
Thu 06:18:49 AM 64.3333 -57.4167 247° West 500 575 36,000  Level Montreal Center
Thu 06:19:17 AM 64.3333 -57.6167 270° West 500 575 36,000  Level Gander Center
Thu 06:19:49 AM 64.3000 -57.7167 232° Southwest 500 575 36,000  Level Montreal Center
Thu 06:20:17 AM 64.2833 -57.9333 260° West 500 575 36,000  Level Gander Center
Thu 06:21:17 AM 64.2500 -58.2333 256° West 500 575 36,000  Level Gander Center
Thu 06:21:49 AM 64.2167 -58.3167 227° Southwest 500 575 36,000  Level Montreal Center
Thu 06:22:49 AM 64.1833 -58.6167 256° West 490 564 36,000  Level Montreal Center
Thu 06:23:17 AM 64.1667 -58.8500 261° West 500 575 36,000  Level Gander Center
Thu 06:24:17 AM 64.1500 -59.1167 262° West 500 575 36,000  Level Gander Center
Thu 06:24:49 AM 64.1167 -59.2167 233° Southwest 500 575 36,000  Level Montreal Center
Thu 06:25:17 AM 64.1000 -59.4333 260° West 500 575 36,000  Level Gander Center
Thu 06:25:49 AM 64.0667 -59.5167 228° Southwest 500 575 36,000  Level Montreal Center
Thu 06:26:49 AM 64.0333 -59.8167 256° West 500 575 36,000  Level Montreal Center
Thu 06:27:17 AM 64.0167 -60.0333 260° West 500 575 36,000  Level Gander Center
Thu 06:28:17 AM 63.9833 -60.3333 256° West 500 575 36,000  Level Gander Center
Thu 06:29:02 AM 63.9333 -60.5667 244° Southwest 500 575 36,000  Level Gander Center
Thu 06:29:17 AM 63.9333 -60.6000 270° West 500 575 36,000  Level Gander Center
Thu 06:30:02 AM 63.9000 -60.8333 252° West 510 587 36,000  Level Gander Center
Thu 06:30:17 AM 63.8833 -60.9000 240° Southwest 510 587 36,000  Level Gander Center
Thu 06:30:49 AM 63.8500 -61.0000 233° Southwest 490 564 36,000  Level Montreal Center
Thu 06:31:17 AM 63.8333 -61.2000 259° West 500 575 36,000  Level Gander Center
Thu 06:32:17 AM 63.7833 -61.4667 247° West 500 575 36,000  Level Gander Center
Thu 06:32:49 AM 63.7500 -61.5833 237° Southwest 500 575 36,000  Level Montreal Center
Thu 06:33:49 AM 63.7000 -61.8833 250° West 490 564 36,000  Level Montreal Center
Thu 06:34:49 AM 63.6500 -62.1667 248° West 500 575 36,000  Level Montreal Center
Thu 06:35:17 AM 63.6333 -62.3667 259° West 490 564 36,000  Level Gander Center
Thu 06:35:49 AM 63.6167 -62.4667 249° West 490 564 36,000  Level Montreal Center
Thu 06:36:17 AM 63.6000 -62.6500 259° West 490 564 36,000  Level Gander Center
Thu 06:37:17 AM 63.5333 -62.9167 241° Southwest 490 564 36,000  Level Gander Center
Thu 06:38:02 AM 63.5000 -63.1333 251° West 490 564 36,000  Level Gander Center
Thu 06:39:02 AM 63.4500 -63.4333 250° West 490 564 36,000  Level Gander Center
Thu 06:39:49 AM 63.4167 -63.5667 241° Southwest 480 552 36,000  Level Montreal Center
Thu 06:40:17 AM 63.3333 -63.5667 180° South 490 564 36,000  Level Edmonton Center
Thu 06:40:49 AM 63.3667 -63.8500 285° West 480 552 36,000  Level Montreal Center
Thu 06:41:17 AM 63.3667 -64.0500 270° West 480 552 36,000  Level Gander Center
Thu 06:41:49 AM 63.3333 -64.1333 228° Southwest 480 552 36,000  Level Montreal Center
Thu 06:42:49 AM 63.2833 -64.4167 249° West 480 552 36,000  Level Montreal Center
Thu 06:43:49 AM 63.2333 -64.7000 249° West 480 552 36,000  Level Montreal Center
Thu 06:44:17 AM 63.2167 -64.8833 259° West 480 552 36,000  Level Gander Center
Thu 06:45:17 AM 63.1500 -65.1667 243° Southwest 480 552 36,000  Level Gander Center
Thu 06:46:02 AM 63.0833 -65.3000 222° Southwest 480 552 36,000  Level Gander Center
Thu 06:46:17 AM 63.0667 -65.3333 222° Southwest 480 552 36,000  Level Gander Center
Thu 06:47:17 AM 62.9667 -65.5500 225° Southwest 480 552 36,000  Level Gander Center
Thu 06:48:17 AM 62.8000 -65.5167 175° South 480 552 36,000  Level Edmonton Center
Thu 06:49:17 AM 62.7000 -65.7167 223° Southwest 480 552 36,000  Level Edmonton Center
Thu 06:50:17 AM 62.5833 -65.8833 213° Southwest 480 552 36,000  Level Edmonton Center
Thu 06:50:49 AM 62.6000 -66.1500 278° West 470 541 36,000  Level Montreal Center
Thu 06:51:17 AM 62.5500 -66.2833 231° Southwest 480 552 36,000  Level Gander Center
Thu 06:52:17 AM 62.4500 -66.4833 223° Southwest 490 564 36,000  Level Gander Center
Thu 06:52:49 AM 62.3833 -66.5000 187° South 480 552 36,000  Level Montreal Center
Thu 06:53:17 AM 62.2833 -66.4500 167° South 490 564 36,000  Level Edmonton Center
Thu 06:53:49 AM 62.2833 -66.7167 270° West 480 552 36,000  Level Montreal Center
Thu 06:54:49 AM 62.1833 -66.9000 221° Southwest 480 552 36,000  Level Montreal Center
Thu 06:55:49 AM 62.0833 -67.0667 218° Southwest 480 552 36,000  Level Montreal Center
Thu 06:56:49 AM 61.9833 -67.2333 218° Southwest 480 552 36,000  Level Montreal Center
Thu 06:57:17 AM 61.8833 -67.1667 163° South 490 564 36,000  Level Edmonton Center
Thu 06:58:17 AM 61.7833 -67.3500 221° Southwest 490 564 36,000  Level Edmonton Center
Thu 06:58:49 AM 61.7667 -67.5833 262° West 480 552 36,000  Level Montreal Center
Thu 06:59:49 AM 61.6667 -67.7833 224° Southwest 480 552 36,000  Level Montreal Center
Thu 07:00:17 AM 61.6167 -67.9167 232° Southwest 480 552 36,000  Level Gander Center
Thu 07:00:49 AM 61.5667 -67.9500 198° South 480 552 36,000  Level Montreal Center
Thu 07:01:49 AM 61.4500 -68.1167 214° Southwest 480 552 36,000  Level Montreal Center
Thu 07:02:49 AM 61.3500 -68.3167 224° Southwest 480 552 36,000  Level Montreal Center
Thu 07:03:49 AM 61.2333 -68.4833 215° Southwest 470 541 36,000  Level Montreal Center
Thu 07:04:49 AM 61.1500 -68.6500 224° Southwest 470 541 36,000  Level Montreal Center
Thu 07:05:49 AM 61.0333 -68.8167 215° Southwest 470 541 36,000  Level Montreal Center
Thu 07:06:49 AM 60.9333 -68.9833 219° Southwest 480 552 36,000  Level Montreal Center
Thu 07:07:49 AM 60.8333 -69.1333 216° Southwest 470 541 36,000  Level Montreal Center
Thu 07:08:49 AM 60.7333 -69.3000 219° Southwest 470 541 36,000  Level Montreal Center
Thu 07:09:49 AM 60.6167 -69.4500 212° Southwest 470 541 36,000  Level Montreal Center
Thu 07:10:49 AM 60.5167 -69.6500 225° Southwest 480 552 36,000  Level Montreal Center
Thu 07:11:49 AM 60.4167 -69.8000 217° Southwest 470 541 36,000  Level Montreal Center
Thu 07:12:49 AM 60.3000 -69.9500 213° Southwest 480 552 36,000  Level Montreal Center
Thu 07:13:49 AM 60.2167 -70.1167 225° Southwest 480 552 36,000  Level Montreal Center
Thu 07:14:49 AM 60.0833 -70.3000 214° Southwest 480 552 36,000  Level Montreal Center
Thu 07:15:49 AM 59.9833 -70.4500 217° Southwest 470 541 36,000  Level Montreal Center
Thu 07:16:49 AM 59.8833 -70.6000 217° Southwest 470 541 36,000 150 Level Montreal Center
Thu 07:17:49 AM 59.7667 -70.7500 213° Southwest 470 541 36,300 750 Climbing Montreal Center
Thu 07:18:49 AM 59.6667 -70.9000 217° Southwest 470 541 37,500 850 Climbing Montreal Center
Thu 07:19:49 AM 59.5500 -71.0500 213° Southwest 470 541 38,000 250 Climbing Montreal Center
Thu 07:20:49 AM 59.4500 -71.2333 223° Southwest 470 541 38,000  Level Montreal Center
Thu 07:21:49 AM 59.3333 -71.3833 213° Southwest 470 541 38,000  Level Montreal Center
Thu 07:22:49 AM 59.2333 -71.5167 214° Southwest 470 541 38,000  Level Montreal Center
Thu 07:23:49 AM 59.1167 -71.6667 213° Southwest 470 541 38,000  Level Montreal Center
Thu 07:24:49 AM 59.0333 -71.8167 223° Southwest 460 529 38,000  Level Montreal Center
Thu 07:25:49 AM 58.9167 -71.9500 211° Southwest 460 529 38,000  Level Montreal Center
Thu 07:26:49 AM 58.8000 -72.1000 214° Southwest 470 541 38,000  Level Montreal Center
Thu 07:27:49 AM 58.7000 -72.2333 215° Southwest 460 529 38,000  Level Montreal Center
Thu 07:28:49 AM 58.5833 -72.3833 214° Southwest 460 529 38,000  Level Montreal Center
Thu 07:29:49 AM 58.5000 -72.5167 220° Southwest 460 529 38,000  Level Montreal Center
Thu 07:30:49 AM 58.3833 -72.6500 211° Southwest 460 529 38,000  Level Montreal Center
Thu 07:31:49 AM 58.2833 -72.8000 218° Southwest 460 529 38,000  Level Montreal Center
Thu 07:32:49 AM 58.1667 -72.9667 217° Southwest 470 541 38,000  Level Montreal Center
Thu 07:33:49 AM 58.0500 -73.1000 211° Southwest 470 541 38,000  Level Montreal Center
Thu 07:34:49 AM 57.9500 -73.2333 215° Southwest 460 529 38,000  Level Montreal Center
Thu 07:35:49 AM 57.8500 -73.3667 215° Southwest 470 541 38,000  Level Montreal Center
Thu 07:36:49 AM 57.7333 -73.5000 211° Southwest 470 541 38,000  Level Montreal Center
Thu 07:37:49 AM 57.6333 -73.6333 216° Southwest 470 541 38,000  Level Montreal Center
Thu 07:38:49 AM 57.5167 -73.7667 212° Southwest 470 541 38,000  Level Montreal Center
Thu 07:39:49 AM 57.4000 -73.9000 212° Southwest 470 541 38,000  Level Montreal Center
Thu 07:40:17 AM 57.3667 -74.0167 242° Southwest 470 541 38,000  Level Gander Center
Thu 07:41:17 AM 57.2500 -74.1667 215° Southwest 470 541 38,000  Level Gander Center
Thu 07:41:49 AM 57.2000 -74.1667 180° South 470 541 38,000  Level Montreal Center
Thu 07:42:49 AM 57.0833 -74.2833 209° Southwest 470 541 38,000  Level Montreal Center
Thu 07:43:49 AM 56.9667 -74.4500 218° Southwest 470 541 38,000  Level Montreal Center
Thu 07:44:49 AM 56.8500 -74.5833 212° Southwest 470 541 38,000  Level Montreal Center
Thu 07:45:49 AM 56.7500 -74.7000 213° Southwest 470 541 38,000  Level Montreal Center
Thu 07:46:49 AM 56.6333 -74.8333 212° Southwest 470 541 38,000  Level Montreal Center
Thu 07:47:49 AM 56.5333 -74.9500 213° Southwest 470 541 38,000  Level Montreal Center
Thu 07:48:49 AM 56.4167 -75.0833 212° Southwest 470 541 38,000  Level Montreal Center
Thu 07:49:49 AM 56.3000 -75.2000 209° Southwest 470 541 38,000  Level Montreal Center
Thu 07:50:49 AM 56.1833 -75.3333 212° Southwest 480 552 38,000  Level Montreal Center
Thu 07:52:49 AM 55.9667 -75.6000 215° Southwest 470 541 38,000  Level Montreal Center
Thu 07:53:49 AM 55.8500 -75.7167 209° Southwest 470 541 38,000  Level Montreal Center
Thu 07:54:49 AM 55.7500 -75.8500 217° Southwest 470 541 38,000  Level Montreal Center
Thu 07:55:49 AM 55.6333 -75.9667 209° Southwest 470 541 38,000  Level Montreal Center
Thu 07:56:49 AM 55.5167 -76.0833 210° Southwest 470 541 38,000  Level Montreal Center
Thu 07:57:49 AM 55.4167 -76.2000 214° Southwest 470 541 38,000  Level Montreal Center
Thu 07:58:49 AM 55.3000 -76.3167 210° Southwest 470 541 38,000  Level Montreal Center
Thu 07:59:49 AM 55.1833 -76.4333 210° Southwest 470 541 38,000  Level Montreal Center
Thu 08:00:49 AM 55.0667 -76.5500 210° Southwest 470 541 38,000  Level Montreal Center
Thu 08:01:49 AM 54.9500 -76.7000 216° Southwest 470 541 38,000  Level Montreal Center
Thu 08:02:49 AM 54.8333 -76.8167 210° Southwest 470 541 38,000  Level Montreal Center
Thu 08:03:49 AM 54.7333 -76.9167 210° Southwest 470 541 38,000  Level Montreal Center
Thu 08:04:49 AM 54.6167 -77.0333 210° Southwest 470 541 38,000  Level Montreal Center
Thu 08:05:49 AM 54.5000 -77.1500 210° Southwest 470 541 38,000  Level Montreal Center
Thu 08:06:49 AM 54.4000 -77.2667 214° Southwest 470 541 38,000  Level Montreal Center
Thu 08:07:49 AM 54.2667 -77.4000 210° Southwest 470 541 38,000  Level Montreal Center
Thu 08:08:49 AM 54.1667 -77.5167 214° Southwest 470 541 38,000  Level Montreal Center
Thu 08:09:49 AM 54.0500 -77.6333 210° Southwest 470 541 38,000  Level Montreal Center
Thu 08:10:49 AM 53.9333 -77.7333 207° Southwest 470 541 38,000  Level Montreal Center
Thu 08:11:49 AM 53.8167 -77.8500 211° Southwest 480 552 38,000  Level Montreal Center
Thu 08:12:49 AM 53.7167 -77.9500 211° Southwest 480 552 38,000  Level Montreal Center
Thu 08:13:49 AM 53.6000 -78.0667 211° Southwest 480 552 38,000  Level Montreal Center
Thu 08:14:49 AM 53.4667 -78.2000 211° Southwest 480 552 38,000  Level Montreal Center
Thu 08:15:49 AM 53.3667 -78.3000 211° Southwest 470 541 38,000  Level Montreal Center
Thu 08:16:49 AM 53.2500 -78.4167 211° Southwest 480 552 38,000  Level Montreal Center
Thu 08:17:49 AM 53.1333 -78.5167 207° Southwest 480 552 38,000  Level Montreal Center
Thu 08:18:49 AM 53.0000 -78.6500 211° Southwest 480 552 38,000  Level Montreal Center
Thu 08:19:49 AM 52.8833 -78.7500 207° Southwest 480 552 38,000  Level Montreal Center
Thu 08:20:49 AM 52.7667 -78.8500 207° Southwest 480 552 38,000  Level Montreal Center
Thu 08:21:49 AM 52.6667 -78.9667 215° Southwest 480 552 38,000  Level Montreal Center
Thu 08:22:49 AM 52.5500 -79.0667 208° Southwest 480 552 38,000  Level Montreal Center
Thu 08:23:49 AM 52.4167 -79.1667 205° Southwest 480 552 38,000  Level Montreal Center
Thu 08:24:49 AM 52.3000 -79.3000 215° Southwest 480 552 38,000  Level Montreal Center
Thu 08:25:49 AM 52.2000 -79.4000 212° Southwest 480 552 38,000  Level Montreal Center
Thu 08:26:49 AM 52.0833 -79.5000 208° Southwest 480 552 38,000  Level Montreal Center
Thu 08:27:49 AM 51.9500 -79.6000 205° Southwest 480 552 38,000  Level Montreal Center
Thu 08:28:42 AM 51.8500 -79.6500 197° South 490 564 38,000  Level Toronto Center
Thu 08:29:41 AM 51.7167 -79.7667 208° Southwest 490 564 38,000  Level Toronto Center
Thu 08:30:41 AM 51.6333 -79.8667 217° Southwest 480 552 38,000  Level Toronto Center
Thu 08:31:41 AM 51.5000 -79.9833 209° Southwest 490 564 38,000  Level Toronto Center
Thu 08:32:41 AM 51.3833 -80.0833 208° Southwest 490 564 38,000  Level Toronto Center
Thu 08:33:41 AM 51.2667 -80.1833 208° Southwest 490 564 38,000  Level Toronto Center
Thu 08:34:41 AM 51.1500 -80.3000 212° Southwest 490 564 38,000  Level Toronto Center
Thu 08:35:41 AM 51.0000 -80.4000 203° Southwest 490 564 38,000  Level Toronto Center
Thu 08:36:41 AM 50.9000 -80.4667 203° Southwest 490 564 38,000  Level Toronto Center
Thu 08:37:41 AM 50.7667 -80.6000 212° Southwest 490 564 38,000  Level Toronto Center
Thu 08:38:41 AM 50.6500 -80.6833 204° Southwest 490 564 38,000  Level Toronto Center
Thu 08:39:41 AM 50.5333 -80.7833 209° Southwest 490 564 38,000  Level Toronto Center
Thu 08:40:41 AM 50.4167 -80.8833 209° Southwest 490 564 38,000  Level Toronto Center
Thu 08:41:41 AM 50.3000 -80.9833 209° Southwest 490 564 38,000  Level Toronto Center
Thu 08:42:41 AM 50.1667 -81.0833 206° Southwest 490 564 38,000  Level Toronto Center
Thu 08:43:41 AM 50.0500 -81.1833 209° Southwest 490 564 38,000  Level Toronto Center
Thu 08:44:41 AM 49.9333 -81.2833 209° Southwest 490 564 38,000  Level Toronto Center
Thu 08:45:41 AM 49.8167 -81.3833 209° Southwest 490 564 38,000  Level Toronto Center
Thu 08:46:41 AM 49.7000 -81.4833 209° Southwest 490 564 38,000  Level Toronto Center
Thu 08:47:41 AM 49.5833 -81.5833 209° Southwest 490 564 38,000  Level Toronto Center
Thu 08:48:41 AM 49.4667 -81.6500 200° South 490 564 38,000  Level Toronto Center
Thu 08:49:41 AM 49.3333 -81.7500 206° Southwest 490 564 38,000  Level Toronto Center
Thu 08:50:41 AM 49.2333 -81.8500 213° Southwest 490 564 38,000  Level Toronto Center
Thu 08:51:41 AM 49.1000 -81.9500 206° Southwest 480 552 38,000  Level Toronto Center
Thu 08:52:41 AM 48.9667 -82.0333 202° Southwest 490 564 38,000  Level Toronto Center
Thu 08:53:42 AM 48.8500 -82.1333 209° Southwest 490 564 38,000  Level Toronto Center
Thu 08:54:41 AM 48.7333 -82.2333 209° Southwest 490 564 38,000  Level Toronto Center
Thu 08:55:41 AM 48.6167 -82.3333 210° Southwest 490 564 38,000  Level Toronto Center
Thu 08:56:41 AM 48.4833 -82.4167 203° Southwest 490 564 38,000  Level Toronto Center
Thu 09:03:06 AM 47.7140 -83.0100 203° Southwest 486 559 38,000  Level FlightAware ADS-B
Thu 09:03:48 AM 47.6410 -83.0630 206° Southwest 486 559 38,000  Level FlightAware ADS-B
Thu 09:04:44 AM 47.5250 -83.1480 206° Southwest 482 555 38,000  Level FlightAware ADS-B
Thu 09:05:21 AM 47.4620 -83.1930 206° Southwest 482 555 38,000  Level FlightAware ADS-B
Thu 09:06:04 AM 47.3610 -83.2660 206° Southwest 482 555 38,000  Level FlightAware ADS-B
Thu 09:06:47 AM 47.2750 -83.3280 206° Southwest 481 554 38,000  Level FlightAware ADS-B
Thu 09:07:34 AM 47.1790 -83.3970 206° Southwest 482 555 38,000  Level FlightAware ADS-B
Thu 09:08:15 AM 47.0970 -83.4550 206° Southwest 482 555 38,000  Level FlightAware ADS-B
Thu 09:08:57 AM 47.0100 -83.5170 206° Southwest 483 556 38,000  Level FlightAware ADS-B
Thu 09:09:39 AM 46.9280 -83.5750 206° Southwest 482 555 38,000  Level FlightAware ADS-B
Thu 09:11:04 AM 46.7630 -83.6910 206° Southwest 480 552 38,000  Level FlightAware ADS-B
Thu 09:11:47 AM 46.6720 -83.7540 205° Southwest 480 552 38,000  Level FlightAware ADS-B
Thu 09:12:29 AM 46.5870 -83.8140 206° Southwest 483 556 38,000  Level FlightAware ADS-B
Thu 09:13:09 AM 46.5060 -83.8700 205° Southwest 485 558 38,000  Level FlightAware ADS-B
Thu 09:13:49 AM 46.4250 -83.9270 206° Southwest 485 558 38,000  Level FlightAware ADS-B
Thu 09:14:37 AM 46.3280 -83.9930 205° Southwest 486 559 38,000  Level FlightAware ADS-B
Thu 09:15:17 AM 46.2450 -84.0500 205° Southwest 490 564 38,000  Level FlightAware ADS-B
Thu 09:16:00 AM 46.1590 -84.1090 205° Southwest 490 564 38,000  Level FlightAware ADS-B
Thu 09:16:40 AM 46.0770 -84.1650 205° Southwest 488 562 38,000  Level FlightAware ADS-B
Thu 09:17:20 AM 45.9950 -84.2210 205° Southwest 487 560 38,000  Level FlightAware ADS-B
Thu 09:18:05 AM 45.9050 -84.2820 205° Southwest 486 559 38,000  Level FlightAware ADS-B
Thu 09:18:44 AM 45.8240 -84.3370 205° Southwest 486 559 38,000  Level FlightAware ADS-B
Thu 09:19:28 AM 45.7350 -84.3970 205° Southwest 485 558 38,000  Level FlightAware ADS-B
Thu 09:20:11 AM 45.6490 -84.4550 205° Southwest 484 557 38,000  Level FlightAware ADS-B
Thu 09:20:48 AM 45.5720 -84.5060 205° Southwest 484 557 38,000  Level FlightAware ADS-B
Thu 09:21:36 AM 45.4760 -84.5700 205° Southwest 485 558 38,000  Level FlightAware ADS-B
Thu 09:22:18 AM 45.3910 -84.6270 205° Southwest 487 560 38,000  Level FlightAware ADS-B
Thu 09:23:00 AM 45.3040 -84.6830 204° Southwest 486 559 38,000  Level FlightAware ADS-B
Thu 09:23:40 AM 45.2170 -84.7220 198° South 493 567 38,000  Level FlightAware ADS-B
Thu 09:24:20 AM 45.1300 -84.7510 193° South 490 564 38,000  Level FlightAware ADS-B
Thu 09:25:04 AM 45.0340 -84.7820 193° South 488 562 38,000  Level FlightAware ADS-B
Thu 09:26:00 AM 44.9590 -84.8070 193° South 488 562 38,000  Level FlightAware ADS-B
Thu 09:26:46 AM 44.8080 -84.8570 193° South 486 559 38,000  Level FlightAware ADS-B
Thu 09:27:20 AM 44.7360 -84.8800 193° South 487 560 38,000  Level FlightAware ADS-B
Thu 09:28:10 AM 44.6240 -84.9170 193° South 488 562 38,000  Level FlightAware ADS-B
Thu 09:28:48 AM 44.5400 -84.9440 193° South 489 563 38,000  Level FlightAware ADS-B
Thu 09:29:30 AM 44.4520 -84.9730 193° South 488 562 38,000  Level FlightAware ADS-B
Thu 09:30:13 AM 44.3550 -85.0040 193° South 486 559 38,000  Level FlightAware ADS-B
Thu 09:30:54 AM 44.3070 -85.0200 193° South 486 559 38,000  Level FlightAware ADS-B
Thu 09:31:38 AM 44.1680 -85.0640 193° South 483 556 38,000  Level FlightAware ADS-B
Thu 09:32:20 AM 44.0770 -85.0940 193° South 481 554 38,000  Level FlightAware ADS-B
Thu 09:33:02 AM 43.9860 -85.1230 193° South 480 552 38,000 -767 Level FlightAware ADS-B
Thu 09:33:46 AM 43.8910 -85.1530 193° South 474 545 36,900 -2,127 Descending FlightAware ADS-B
Thu 09:34:21 AM 43.8180 -85.1760 193° South 478 550 35,200 -3,073 Descending FlightAware ADS-B
Thu 09:35:08 AM 43.7150 -85.2090 193° South 483 556 32,700 -1,846 Descending FlightAware ADS-B
Thu 09:36:05 AM 43.6020 -85.2440 193° South 476 548 32,000 -612 Descending FlightAware ADS-B
Thu 09:36:46 AM 43.5110 -85.2980 203° Southwest 463 533 31,700 -1,247 Descending FlightAware ADS-B
Thu 09:37:22 AM 43.4510 -85.3640 219° Southwest 472 543 30,400 -1,953 Descending FlightAware ADS-B
Thu 09:38:12 AM 43.3660 -85.4610 220° Southwest 470 541 28,900 -1,696 Descending FlightAware ADS-B
Thu 09:38:54 AM 43.2980 -85.5430 221° Southwest 459 528 27,800 -1,537 Descending FlightAware ADS-B
Thu 09:39:34 AM 43.2460 -85.6280 230° Southwest 452 520 26,800 -1,610 Descending FlightAware ADS-B
Thu 09:40:16 AM 43.1940 -85.7280 235° Southwest 443 510 25,600 -1,674 Descending FlightAware ADS-B
Thu 09:41:00 AM 43.1420 -85.8270 234° Southwest 435 501 24,400 -1,200 Descending FlightAware ADS-B
Thu 09:41:41 AM 43.0950 -85.9170 234° Southwest 435 501 23,900 -1,157 Descending FlightAware ADS-B
Thu 09:42:23 AM 43.0460 -86.0090 234° Southwest 431 496 22,800 -1,735 Descending FlightAware ADS-B
Thu 09:43:04 AM 42.9990 -86.0990 234° Southwest 427 491 21,500 -1,341 Descending FlightAware ADS-B
Thu 09:43:48 AM 42.9490 -86.1940 234° Southwest 414 476 20,900 -571 Descending FlightAware ADS-B
Thu 09:44:28 AM 42.9020 -86.2820 234° Southwest 415 478 20,700 -434 Descending FlightAware ADS-B
Thu 09:45:11 AM 42.8550 -86.3700 234° Southwest 411 473 20,300 -424 Descending FlightAware ADS-B
Thu 09:46:07 AM 42.7980 -86.4780 234° Southwest 409 471 20,000 -247 Descending FlightAware ADS-B
Thu 09:46:48 AM 42.7460 -86.5740 234° Southwest 408 470 19,900 -988 Descending FlightAware ADS-B
Thu 09:47:32 AM 42.6990 -86.6610 234° Southwest 404 465 18,600 -1,694 Descending FlightAware ADS-B
Thu 09:48:13 AM 42.6560 -86.7420 234° Southwest 406 467 17,500 -1,725 Descending FlightAware ADS-B
Thu 09:48:52 AM 42.6100 -86.8270 234° Southwest 398 458 16,300 -1,692 Descending FlightAware ADS-B
Thu 09:49:31 AM 42.5680 -86.9040 233° Southwest 387 445 15,300 -1,606 Descending FlightAware ADS-B
Thu 09:50:03 AM 42.5350 -86.9660 234° Southwest 384 442 14,400 -1,600 Descending FlightAware ADS-B
Thu 09:50:46 AM 42.4940 -87.0390 233° Southwest 377 434 13,300 -1,714 Descending FlightAware ADS-B
Thu 09:51:27 AM 42.4510 -87.1300 237° Southwest 368 423 12,000 -1,671 Descending FlightAware ADS-B
Thu 09:52:05 AM 42.4280 -87.2090 248° West 362 417 11,100 -1,163 Descending FlightAware ADS-B
Thu 09:53:05 AM 42.3950 -87.3320 250° West 343 395 10,100 -588 Descending FlightAware ADS-B
Thu 09:53:47 AM 42.3720 -87.4170 250° West 345 397 10,100  Level FlightAware ADS-B
Thu 09:54:31 AM 42.3460 -87.5070 249° West 349 402 10,100  Level FlightAware ADS-B
Thu 09:55:05 AM 42.3100 -87.5650 230° Southwest 362 417 10,100 -71 Level FlightAware ADS-B
Thu 09:55:55 AM 42.2490 -87.6300 218° Southwest 362 417 10,000 -67 Descending FlightAware ADS-B
Thu 09:56:35 AM 42.1930 -87.6890 218° Southwest 359 413 10,000  Level FlightAware ADS-B
Thu 09:57:17 AM 42.1370 -87.7480 218° Southwest 349 402 10,000  Level FlightAware ADS-B
Thu 09:57:59 AM 42.0890 -87.8040 221° Southwest 298 343 10,000 -353 Level FlightAware ADS-B
Thu 09:58:25 AM 42.0720 -87.8450 241° Southwest 287 330 9,600 -1,034 Descending FlightAware ADS-B
Thu 09:58:57 AM 42.0600 -87.8970 253° West 266 306 9,000 -600 Descending FlightAware ADS-B
Thu 09:59:25 AM 42.0600 -87.9400 270° West 239 275 9,000  Level FlightAware ADS-B
Thu 09:59:53 AM 42.0600 -87.9790 270° West 210 242 9,000  Level FlightAware ADS-B
Thu 10:00:33 AM 42.0590 -88.0280 268° West 194 223 9,000  Level FlightAware ADS-B
Thu 10:00:41 AM 42.0590 -88.0380 270° West 196 226 9,000 -333 Level FlightAware ADS-B
Thu 10:01:09 AM 42.0580 -88.0730 268° West 197 227 8,800 -436 Descending FlightAware ADS-B
Thu 10:01:36 AM 42.0570 -88.1040 268° West 196 226 8,600 -526 Descending FlightAware ADS-B
Thu 10:02:06 AM 42.0550 -88.1420 266° West 197 227 8,300 -577 Descending FlightAware ADS-B
Thu 10:02:28 AM 42.0540 -88.1690 267° West 198 228 8,100 -500 Descending FlightAware ADS-B
Thu 10:02:54 AM 42.0530 -88.2000 268° West 197 227 7,900 -462 Descending FlightAware ADS-B
Thu 10:03:07 AM 42.0520 -88.2150 265° West 195 224 7,800 -1,000 Descending FlightAware ADS-B
Thu 10:03:36 AM 42.0510 -88.2510 268° West 195 224 7,200 -1,179 Descending FlightAware ADS-B
Thu 10:04:03 AM 42.0510 -88.2850 270° West 200 230 6,700 -1,143 Descending FlightAware ADS-B
Thu 10:04:18 AM 42.0450 -88.3030 246° West 219 252 6,400 -1,111 Descending FlightAware ADS-B
Thu 10:04:30 AM 42.0360 -88.3130 220° Southwest 230 265 6,200 -1,091 Descending FlightAware ADS-B
Thu 10:04:40 AM 42.0250 -88.3170 195° South 233 268 6,000 -900 Descending FlightAware ADS-B
Thu 10:05:10 AM 41.9970 -88.3150 177° South 229 264 5,600 -732 Descending FlightAware ADS-B
Thu 10:05:21 AM 41.9890 -88.3090 151° Southeast 219 252 5,500 -698 Descending FlightAware ADS-B
Thu 10:05:53 AM 41.9700 -88.2700 123° Southeast 197 227 5,100 -600 Descending FlightAware ADS-B
Thu 10:06:11 AM 41.9680 -88.2490 97° East 189 217 5,000 -632 Descending FlightAware ADS-B
Thu 10:06:31 AM 41.9680 -88.2240 90° East 186 214 4,700 -769 Descending FlightAware ADS-B
Thu 10:06:50 AM 41.9680 -88.2040 90° East 182 209 4,500 -706 Descending FlightAware ADS-B
Thu 10:07:22 AM 41.9680 -88.1700 90° East 170 196 4,100 -828 Descending FlightAware ADS-B
Thu 10:07:48 AM 41.9680 -88.1410 90° East 170 196 3,700 -857 Descending FlightAware ADS-B
Thu 10:08:11 AM 41.9680 -88.1180 90° East 168 193 3,400 -792 Descending FlightAware ADS-B
Thu 10:08:41 AM 41.9690 -88.0910 87° East 166 191 3,000 -871 Descending FlightAware ADS-B
Thu 10:09:13 AM 41.9690 -88.0540 90° East 168 193 2,500 -814 Descending FlightAware ADS-B
Thu 10:09:40 AM 41.9690 -88.0340 90° East 159 183 2,200 -894 Descending FlightAware ADS-B
Thu 10:10:00 AM 41.9690 -88.0100 90° East 147 169 1,800 -857 Descending FlightAware ADS-B
Thu 10:10:29 AM 41.9690 -87.9830 90° East 143 165 1,500 -706 Descending FlightAware ADS-B
Thu 10:10:51 AM 41.9690 -87.9620 90° East 142 163 1,200 -346 Descending FlightAware ADS-B
Thu 10:12:13 AM 41.9690 -87.9410 90° East 139 160 900 -167 Descending FlightAware ADS-B
Thu 10:12:39 AM 41.9690 -87.9220 90° East 139 160 900  Level FlightAware ADS-B

Login

Don't have an account? Register now (free) for customized features, flight alerts, and more!